<?xml version="1.0" encoding="UTF-8" standalone="no" ?>
<gpx xmlns="http://www.topografix.com/GPX/1/1" xmlns:xsi="http://www.w3.org/2001/XMLSchema-instance" xsi:schemaLocation="http://www.topografix.com/GPX/1/1 http://www.topografix.com/GPX/1/1/gpx.xsd" version="1.1" creator="VisuGPX - https://www.visugpx.com">
  <metadata>
    <name>J5 Rochefort_BordsDeCharente_Ville 9-18km</name>
    <desc><![CDATA[bJZzasAPtF gnerando idor:7196364_20798918]]></desc>
  </metadata>
  <trk>
    <name><![CDATA[Rochefort_BordCharenteEtVille_18km-7196364]]></name>
    <desc><![CDATA[WE GNE le 25/03/2017]]></desc>
    <extensions>
      <line xmlns="http://www.topografix.com/GPX/gpx_style/0/2">
        <color>0000FF</color>
        <width>4</width>
      </line>
    </extensions>
    <trkseg>
      <trkpt lat="45.92648" lon="-0.94968">
        <ele>5</ele>
        <time>2023-11-11T19:10:27Z</time>
        <extensions>
          <visugpx:TrkExtension xmlns:visugpx="https://www.visugpx.com/editgpx/">
            <visugpx:node>1</visugpx:node>
            </visugpx:TrkExtension>
        </extensions>
      </trkpt>
      <trkpt lat="45.92655" lon="-0.94942">
        <ele>4</ele>
        <time>2023-11-11T19:10:53Z</time>
      </trkpt>
      <trkpt lat="45.92639" lon="-0.94928">
        <ele>4</ele>
        <time>2023-11-11T19:11:18Z</time>
      </trkpt>
      <trkpt lat="45.9253" lon="-0.94924">
        <ele>4</ele>
        <time>2023-11-11T19:13:43Z</time>
      </trkpt>
      <trkpt lat="45.92493" lon="-0.94927">
        <ele>3</ele>
        <time>2023-11-11T19:14:33Z</time>
      </trkpt>
      <trkpt lat="45.92475" lon="-0.94925">
        <ele>3</ele>
        <time>2023-11-11T19:14:57Z</time>
      </trkpt>
      <trkpt lat="45.92458" lon="-0.94935">
        <ele>2</ele>
        <time>2023-11-11T19:15:21Z</time>
      </trkpt>
      <trkpt lat="45.9244" lon="-0.9494">
        <ele>2</ele>
        <time>2023-11-11T19:15:46Z</time>
      </trkpt>
      <trkpt lat="45.92423" lon="-0.9495">
        <ele>2</ele>
        <time>2023-11-11T19:16:10Z</time>
      </trkpt>
      <trkpt lat="45.92384" lon="-0.94947">
        <ele>1</ele>
        <time>2023-11-11T19:17:03Z</time>
      </trkpt>
      <trkpt lat="45.92369" lon="-0.94963">
        <ele>1</ele>
        <time>2023-11-11T19:17:27Z</time>
      </trkpt>
      <trkpt lat="45.92337" lon="-0.94988">
        <ele>1</ele>
        <time>2023-11-11T19:18:16Z</time>
      </trkpt>
      <trkpt lat="45.9231" lon="-0.95024">
        <ele>1</ele>
        <time>2023-11-11T19:19:05Z</time>
      </trkpt>
      <trkpt lat="45.92313" lon="-0.95051">
        <ele>2</ele>
        <time>2023-11-11T19:19:31Z</time>
      </trkpt>
      <trkpt lat="45.9232" lon="-0.95078">
        <ele>2</ele>
        <time>2023-11-11T19:19:57Z</time>
      </trkpt>
      <trkpt lat="45.9233" lon="-0.95101">
        <ele>2</ele>
        <time>2023-11-11T19:20:23Z</time>
      </trkpt>
      <trkpt lat="45.92322" lon="-0.95125">
        <ele>2</ele>
        <time>2023-11-11T19:20:47Z</time>
      </trkpt>
      <trkpt lat="45.92268" lon="-0.95154">
        <ele>1</ele>
        <time>2023-11-11T19:22:04Z</time>
      </trkpt>
      <trkpt lat="45.92202" lon="-0.95204">
        <ele>3</ele>
        <time>2023-11-11T19:23:44Z</time>
      </trkpt>
      <trkpt lat="45.92183" lon="-0.95209">
        <ele>4</ele>
        <time>2023-11-11T19:24:09Z</time>
      </trkpt>
      <trkpt lat="45.9212" lon="-0.95268">
        <ele>3</ele>
        <time>2023-11-11T19:25:50Z</time>
      </trkpt>
      <trkpt lat="45.91982" lon="-0.95409">
        <ele>1</ele>
        <time>2023-11-11T19:29:36Z</time>
      </trkpt>
      <trkpt lat="45.91953" lon="-0.95443">
        <ele>1</ele>
        <time>2023-11-11T19:30:26Z</time>
      </trkpt>
      <trkpt lat="45.919" lon="-0.95519">
        <ele>1</ele>
        <time>2023-11-11T19:32:06Z</time>
      </trkpt>
      <trkpt lat="45.91878" lon="-0.95563">
        <ele>1</ele>
        <time>2023-11-11T19:32:56Z</time>
      </trkpt>
      <trkpt lat="45.91865" lon="-0.95583">
        <ele>1</ele>
        <time>2023-11-11T19:33:21Z</time>
      </trkpt>
      <trkpt lat="45.91837" lon="-0.95651">
        <ele>3</ele>
        <time>2023-11-11T19:34:35Z</time>
      </trkpt>
      <trkpt lat="45.91829" lon="-0.95676">
        <ele>3</ele>
        <time>2023-11-11T19:35:00Z</time>
      </trkpt>
      <trkpt lat="45.91795" lon="-0.95804">
        <ele>2</ele>
        <time>2023-11-11T19:37:07Z</time>
      </trkpt>
      <trkpt lat="45.9178" lon="-0.95911">
        <ele>1</ele>
        <time>2023-11-11T19:38:49Z</time>
      </trkpt>
      <trkpt lat="45.91785" lon="-0.95965">
        <ele>1</ele>
        <time>2023-11-11T19:39:39Z</time>
      </trkpt>
      <trkpt lat="45.91769" lon="-0.95981">
        <ele>3.5</ele>
        <time>2023-11-11T19:40:05Z</time>
      </trkpt>
      <trkpt lat="45.91751" lon="-0.95986">
        <ele>-1</ele>
        <time>2023-11-11T19:40:30Z</time>
      </trkpt>
      <trkpt lat="45.91733" lon="-0.95995">
        <ele>2</ele>
        <time>2023-11-11T19:40:55Z</time>
      </trkpt>
      <trkpt lat="45.91722" lon="-0.96049">
        <ele>1</ele>
        <time>2023-11-11T19:41:47Z</time>
      </trkpt>
      <trkpt lat="45.91739" lon="-0.96061">
        <ele>-1</ele>
        <time>2023-11-11T19:42:13Z</time>
      </trkpt>
      <trkpt lat="45.91775" lon="-0.96065">
        <ele>-1</ele>
        <time>2023-11-11T19:43:01Z</time>
      </trkpt>
      <trkpt lat="45.91813" lon="-0.96065">
        <ele>2</ele>
        <time>2023-11-11T19:43:52Z</time>
      </trkpt>
      <trkpt lat="45.91795" lon="-0.96113">
        <ele>1</ele>
        <time>2023-11-11T19:44:42Z</time>
      </trkpt>
      <trkpt lat="45.91785" lon="-0.96164">
        <ele>1</ele>
        <time>2023-11-11T19:45:31Z</time>
      </trkpt>
      <trkpt lat="45.91775" lon="-0.96186">
        <ele>1</ele>
        <time>2023-11-11T19:45:56Z</time>
      </trkpt>
      <trkpt lat="45.91771" lon="-0.96211">
        <ele>1</ele>
        <time>2023-11-11T19:46:20Z</time>
      </trkpt>
      <trkpt lat="45.91766" lon="-0.96292">
        <ele>2</ele>
        <time>2023-11-11T19:47:35Z</time>
      </trkpt>
      <trkpt lat="45.9176" lon="-0.96344">
        <ele>3</ele>
        <time>2023-11-11T19:48:24Z</time>
      </trkpt>
      <trkpt lat="45.9176" lon="-0.96397">
        <ele>3</ele>
        <time>2023-11-11T19:49:13Z</time>
      </trkpt>
      <trkpt lat="45.91773" lon="-0.96416">
        <ele>2</ele>
        <time>2023-11-11T19:49:38Z</time>
      </trkpt>
      <trkpt lat="45.91809" lon="-0.96426">
        <ele>2</ele>
        <time>2023-11-11T19:50:27Z</time>
      </trkpt>
      <trkpt lat="45.91827" lon="-0.96473">
        <ele>1</ele>
        <time>2023-11-11T19:51:17Z</time>
      </trkpt>
      <trkpt lat="45.91833" lon="-0.96499">
        <ele>1</ele>
        <time>2023-11-11T19:51:42Z</time>
      </trkpt>
      <trkpt lat="45.9183" lon="-0.96526">
        <ele>1</ele>
        <time>2023-11-11T19:52:08Z</time>
      </trkpt>
      <trkpt lat="45.91815" lon="-0.96543">
        <ele>1</ele>
        <time>2023-11-11T19:52:33Z</time>
      </trkpt>
      <trkpt lat="45.91798" lon="-0.96553">
        <ele>1</ele>
        <time>2023-11-11T19:52:58Z</time>
      </trkpt>
      <trkpt lat="45.91801" lon="-0.96579">
        <ele>3</ele>
        <time>2023-11-11T19:53:22Z</time>
      </trkpt>
      <trkpt lat="45.91813" lon="-0.96601">
        <ele>1</ele>
        <time>2023-11-11T19:53:48Z</time>
      </trkpt>
      <trkpt lat="45.91817" lon="-0.96627">
        <ele>2</ele>
        <time>2023-11-11T19:54:13Z</time>
      </trkpt>
      <trkpt lat="45.91809" lon="-0.96651">
        <ele>2</ele>
        <time>2023-11-11T19:54:37Z</time>
      </trkpt>
      <trkpt lat="45.91792" lon="-0.96664">
        <ele>2</ele>
        <time>2023-11-11T19:55:03Z</time>
      </trkpt>
      <trkpt lat="45.91775" lon="-0.96742">
        <ele>2</ele>
        <time>2023-11-11T19:56:19Z</time>
      </trkpt>
      <trkpt lat="45.91771" lon="-0.96796">
        <ele>1</ele>
        <time>2023-11-11T19:57:09Z</time>
      </trkpt>
      <trkpt lat="45.91772" lon="-0.96823">
        <ele>1</ele>
        <time>2023-11-11T19:57:35Z</time>
      </trkpt>
      <trkpt lat="45.91787" lon="-0.96872">
        <ele>1</ele>
        <time>2023-11-11T19:58:24Z</time>
      </trkpt>
      <trkpt lat="45.91824" lon="-0.96864">
        <ele>2</ele>
        <time>2023-11-11T19:59:14Z</time>
      </trkpt>
      <trkpt lat="45.91862" lon="-0.9686">
        <ele>3</ele>
        <time>2023-11-11T20:00:05Z</time>
      </trkpt>
      <trkpt lat="45.9188" lon="-0.96864">
        <ele>3</ele>
        <time>2023-11-11T20:00:29Z</time>
      </trkpt>
      <trkpt lat="45.91892" lon="-0.96884">
        <ele>3</ele>
        <time>2023-11-11T20:00:54Z</time>
      </trkpt>
      <trkpt lat="45.91894" lon="-0.9691">
        <ele>3</ele>
        <time>2023-11-11T20:01:18Z</time>
      </trkpt>
      <trkpt lat="45.9189" lon="-0.96936">
        <ele>2</ele>
        <time>2023-11-11T20:01:43Z</time>
      </trkpt>
      <trkpt lat="45.9189" lon="-0.96962">
        <ele>1</ele>
        <time>2023-11-11T20:02:07Z</time>
      </trkpt>
      <trkpt lat="45.91935" lon="-0.9701">
        <ele>1</ele>
        <time>2023-11-11T20:03:22Z</time>
      </trkpt>
      <trkpt lat="45.91938" lon="-0.97037">
        <ele>1</ele>
        <time>2023-11-11T20:03:47Z</time>
      </trkpt>
      <trkpt lat="45.91951" lon="-0.97085">
        <ele>1</ele>
        <time>2023-11-11T20:04:35Z</time>
      </trkpt>
      <trkpt lat="45.91968" lon="-0.97133">
        <ele>3.2</ele>
        <time>2023-11-11T20:05:25Z</time>
      </trkpt>
      <trkpt lat="45.91968" lon="-0.97161">
        <ele>3.7</ele>
        <time>2023-11-11T20:05:51Z</time>
      </trkpt>
      <trkpt lat="45.9196" lon="-0.97239">
        <ele>2</ele>
        <time>2023-11-11T20:07:04Z</time>
      </trkpt>
      <trkpt lat="45.91939" lon="-0.97247">
        <ele>3</ele>
        <time>2023-11-11T20:07:33Z</time>
      </trkpt>
      <trkpt lat="45.91957" lon="-0.9724">
        <ele>2</ele>
        <time>2023-11-11T20:07:58Z</time>
      </trkpt>
      <trkpt lat="45.91941" lon="-0.9725">
        <ele>3</ele>
        <time>2023-11-11T20:08:21Z</time>
      </trkpt>
      <trkpt lat="45.91952" lon="-0.97227">
        <ele>2</ele>
        <time>2023-11-11T20:08:47Z</time>
      </trkpt>
      <trkpt lat="45.91953" lon="-0.972">
        <ele>1</ele>
        <time>2023-11-11T20:09:12Z</time>
      </trkpt>
      <trkpt lat="45.91959" lon="-0.97174">
        <ele>3.4</ele>
        <time>2023-11-11T20:09:38Z</time>
      </trkpt>
      <trkpt lat="45.91978" lon="-0.97173">
        <ele>3.6</ele>
        <time>2023-11-11T20:10:03Z</time>
      </trkpt>
      <trkpt lat="45.91996" lon="-0.97176">
        <ele>3.1</ele>
        <time>2023-11-11T20:10:27Z</time>
      </trkpt>
      <trkpt lat="45.92012" lon="-0.9719">
        <ele>3</ele>
        <time>2023-11-11T20:10:52Z</time>
      </trkpt>
      <trkpt lat="45.9203" lon="-0.9718">
        <ele>1</ele>
        <time>2023-11-11T20:11:18Z</time>
      </trkpt>
      <trkpt lat="45.92044" lon="-0.97163">
        <ele>2</ele>
        <time>2023-11-11T20:11:42Z</time>
      </trkpt>
      <trkpt lat="45.92062" lon="-0.97158">
        <ele>2</ele>
        <time>2023-11-11T20:12:07Z</time>
      </trkpt>
      <trkpt lat="45.92079" lon="-0.9717">
        <ele>3</ele>
        <time>2023-11-11T20:12:32Z</time>
      </trkpt>
      <trkpt lat="45.92097" lon="-0.97178">
        <ele>3</ele>
        <time>2023-11-11T20:12:57Z</time>
      </trkpt>
      <trkpt lat="45.92134" lon="-0.97186">
        <ele>2</ele>
        <time>2023-11-11T20:13:47Z</time>
      </trkpt>
      <trkpt lat="45.92169" lon="-0.972">
        <ele>3</ele>
        <time>2023-11-11T20:14:36Z</time>
      </trkpt>
      <trkpt lat="45.92186" lon="-0.97212">
        <ele>3</ele>
        <time>2023-11-11T20:15:01Z</time>
      </trkpt>
      <trkpt lat="45.92202" lon="-0.97228">
        <ele>3</ele>
        <time>2023-11-11T20:15:27Z</time>
      </trkpt>
      <trkpt lat="45.92255" lon="-0.97302">
        <ele>2</ele>
        <time>2023-11-11T20:17:06Z</time>
      </trkpt>
      <trkpt lat="45.9233" lon="-0.97381">
        <ele>2</ele>
        <time>2023-11-11T20:19:10Z</time>
      </trkpt>
      <trkpt lat="45.92393" lon="-0.9744">
        <ele>3</ele>
        <time>2023-11-11T20:20:50Z</time>
      </trkpt>
      <trkpt lat="45.92406" lon="-0.97458">
        <ele>3</ele>
        <time>2023-11-11T20:21:14Z</time>
      </trkpt>
      <trkpt lat="45.92417" lon="-0.9748">
        <ele>3</ele>
        <time>2023-11-11T20:21:39Z</time>
      </trkpt>
      <trkpt lat="45.92419" lon="-0.97505">
        <ele>3</ele>
        <time>2023-11-11T20:22:03Z</time>
      </trkpt>
      <trkpt lat="45.92416" lon="-0.97532">
        <ele>3</ele>
        <time>2023-11-11T20:22:28Z</time>
      </trkpt>
      <trkpt lat="45.92404" lon="-0.97552">
        <ele>3</ele>
        <time>2023-11-11T20:22:53Z</time>
      </trkpt>
      <trkpt lat="45.92359" lon="-0.976">
        <ele>1</ele>
        <time>2023-11-11T20:24:07Z</time>
      </trkpt>
      <trkpt lat="45.92327" lon="-0.97626">
        <ele>2</ele>
        <time>2023-11-11T20:24:56Z</time>
      </trkpt>
      <trkpt lat="45.92297" lon="-0.97658">
        <ele>3</ele>
        <time>2023-11-11T20:25:46Z</time>
      </trkpt>
      <trkpt lat="45.92284" lon="-0.97678">
        <ele>3</ele>
        <time>2023-11-11T20:26:12Z</time>
      </trkpt>
      <trkpt lat="45.92254" lon="-0.97712">
        <ele>3</ele>
        <time>2023-11-11T20:27:03Z</time>
      </trkpt>
      <trkpt lat="45.92194" lon="-0.97773">
        <ele>3</ele>
        <time>2023-11-11T20:28:41Z</time>
      </trkpt>
      <trkpt lat="45.9218" lon="-0.9779">
        <ele>3</ele>
        <time>2023-11-11T20:29:05Z</time>
      </trkpt>
      <trkpt lat="45.92163" lon="-0.97803">
        <ele>3</ele>
        <time>2023-11-11T20:29:31Z</time>
      </trkpt>
      <trkpt lat="45.92148" lon="-0.97819">
        <ele>2</ele>
        <time>2023-11-11T20:29:56Z</time>
      </trkpt>
      <trkpt lat="45.92109" lon="-0.97909">
        <ele>2</ele>
        <time>2023-11-11T20:31:34Z</time>
      </trkpt>
      <trkpt lat="45.92097" lon="-0.9796">
        <ele>2</ele>
        <time>2023-11-11T20:32:24Z</time>
      </trkpt>
      <trkpt lat="45.9209" lon="-0.98039">
        <ele>2</ele>
        <time>2023-11-11T20:33:38Z</time>
      </trkpt>
      <trkpt lat="45.92092" lon="-0.98121">
        <ele>2</ele>
        <time>2023-11-11T20:34:54Z</time>
      </trkpt>
      <trkpt lat="45.9211" lon="-0.98332">
        <ele>2</ele>
        <time>2023-11-11T20:38:12Z</time>
      </trkpt>
      <trkpt lat="45.92112" lon="-0.98385">
        <ele>2</ele>
        <time>2023-11-11T20:39:01Z</time>
      </trkpt>
      <trkpt lat="45.9212" lon="-0.98463">
        <ele>2</ele>
        <time>2023-11-11T20:40:14Z</time>
      </trkpt>
      <trkpt lat="45.92147" lon="-0.98593">
        <ele>2</ele>
        <time>2023-11-11T20:42:20Z</time>
      </trkpt>
      <trkpt lat="45.9218" lon="-0.98688">
        <ele>2</ele>
        <time>2023-11-11T20:43:59Z</time>
      </trkpt>
      <trkpt lat="45.922" lon="-0.98733">
        <ele>2</ele>
        <time>2023-11-11T20:44:48Z</time>
      </trkpt>
      <trkpt lat="45.92259" lon="-0.98837">
        <ele>1</ele>
        <time>2023-11-11T20:46:53Z</time>
      </trkpt>
      <trkpt lat="45.92286" lon="-0.98874">
        <ele>2</ele>
        <time>2023-11-11T20:47:43Z</time>
      </trkpt>
      <trkpt lat="45.92343" lon="-0.98941">
        <ele>2</ele>
        <time>2023-11-11T20:49:21Z</time>
      </trkpt>
      <trkpt lat="45.9242" lon="-0.99018">
        <ele>3</ele>
        <time>2023-11-11T20:51:26Z</time>
      </trkpt>
      <trkpt lat="45.92463" lon="-0.99071">
        <ele>3</ele>
        <time>2023-11-11T20:52:42Z</time>
      </trkpt>
      <trkpt lat="45.92522" lon="-0.99137">
        <ele>2</ele>
        <time>2023-11-11T20:54:21Z</time>
      </trkpt>
      <trkpt lat="45.92564" lon="-0.99188">
        <ele>3</ele>
        <time>2023-11-11T20:55:35Z</time>
      </trkpt>
      <trkpt lat="45.92591" lon="-0.99225">
        <ele>2</ele>
        <time>2023-11-11T20:56:24Z</time>
      </trkpt>
      <trkpt lat="45.92642" lon="-0.99299">
        <ele>1</ele>
        <time>2023-11-11T20:58:01Z</time>
      </trkpt>
      <trkpt lat="45.92652" lon="-0.99321">
        <ele>1</ele>
        <time>2023-11-11T20:58:26Z</time>
      </trkpt>
      <trkpt lat="45.92667" lon="-0.99339">
        <ele>2</ele>
        <time>2023-11-11T20:58:52Z</time>
      </trkpt>
      <trkpt lat="45.92745" lon="-0.99456">
        <ele>1</ele>
        <time>2023-11-11T21:01:22Z</time>
      </trkpt>
      <trkpt lat="45.92781" lon="-0.99517">
        <ele>1</ele>
        <time>2023-11-11T21:02:36Z</time>
      </trkpt>
      <trkpt lat="45.92803" lon="-0.9956">
        <ele>2</ele>
        <time>2023-11-11T21:03:26Z</time>
      </trkpt>
      <trkpt lat="45.92905" lon="-0.99781">
        <ele>2</ele>
        <time>2023-11-11T21:07:32Z</time>
      </trkpt>
      <trkpt lat="45.92914" lon="-0.99806">
        <ele>2</ele>
        <time>2023-11-11T21:07:58Z</time>
      </trkpt>
      <trkpt lat="45.92926" lon="-0.99855">
        <ele>2</ele>
        <time>2023-11-11T21:08:46Z</time>
      </trkpt>
      <trkpt lat="45.9296" lon="-0.99951">
        <ele>2</ele>
        <time>2023-11-11T21:10:26Z</time>
      </trkpt>
      <trkpt lat="45.92972" lon="-1.00002">
        <ele>3</ele>
        <time>2023-11-11T21:11:16Z</time>
      </trkpt>
      <trkpt lat="45.92981" lon="-1.00025">
        <ele>2</ele>
        <time>2023-11-11T21:11:41Z</time>
      </trkpt>
      <trkpt lat="45.93034" lon="-1.00195">
        <ele>1</ele>
        <time>2023-11-11T21:14:34Z</time>
      </trkpt>
      <trkpt lat="45.93115" lon="-1.00402">
        <ele>2</ele>
        <time>2023-11-11T21:18:14Z</time>
      </trkpt>
      <trkpt lat="45.93118" lon="-1.00428">
        <ele>2</ele>
        <time>2023-11-11T21:18:39Z</time>
      </trkpt>
      <trkpt lat="45.93115" lon="-1.00455">
        <ele>2</ele>
        <time>2023-11-11T21:19:04Z</time>
      </trkpt>
      <trkpt lat="45.93092" lon="-1.00495">
        <ele>2</ele>
        <time>2023-11-11T21:19:52Z</time>
      </trkpt>
      <trkpt lat="45.93073" lon="-1.00496">
        <ele>2</ele>
        <time>2023-11-11T21:20:18Z</time>
      </trkpt>
      <trkpt lat="45.93091" lon="-1.00492">
        <ele>2</ele>
        <time>2023-11-11T21:20:42Z</time>
      </trkpt>
      <trkpt lat="45.93107" lon="-1.00478">
        <ele>2</ele>
        <time>2023-11-11T21:21:07Z</time>
      </trkpt>
      <trkpt lat="45.93119" lon="-1.00457">
        <ele>2</ele>
        <time>2023-11-11T21:21:32Z</time>
      </trkpt>
      <trkpt lat="45.93134" lon="-1.00443">
        <ele>3</ele>
        <time>2023-11-11T21:21:56Z</time>
      </trkpt>
      <trkpt lat="45.93172" lon="-1.00443">
        <ele>3</ele>
        <time>2023-11-11T21:22:47Z</time>
      </trkpt>
      <trkpt lat="45.9319" lon="-1.00451">
        <ele>3</ele>
        <time>2023-11-11T21:23:12Z</time>
      </trkpt>
      <trkpt lat="45.93207" lon="-1.00462">
        <ele>3</ele>
        <time>2023-11-11T21:23:37Z</time>
      </trkpt>
      <trkpt lat="45.93256" lon="-1.00498">
        <ele>2</ele>
        <time>2023-11-11T21:24:50Z</time>
      </trkpt>
      <trkpt lat="45.93349" lon="-1.00585">
        <ele>3</ele>
        <time>2023-11-11T21:27:18Z</time>
      </trkpt>
      <trkpt lat="45.93382" lon="-1.00607">
        <ele>3</ele>
        <time>2023-11-11T21:28:07Z</time>
      </trkpt>
      <trkpt lat="45.93436" lon="-1.00629">
        <ele>3</ele>
        <time>2023-11-11T21:29:22Z</time>
      </trkpt>
      <trkpt lat="45.93492" lon="-1.00643">
        <ele>3</ele>
        <time>2023-11-11T21:30:37Z</time>
      </trkpt>
      <trkpt lat="45.93548" lon="-1.00649">
        <ele>2</ele>
        <time>2023-11-11T21:31:52Z</time>
      </trkpt>
      <trkpt lat="45.93585" lon="-1.0065">
        <ele>1</ele>
        <time>2023-11-11T21:32:42Z</time>
      </trkpt>
      <trkpt lat="45.93623" lon="-1.00647">
        <ele>1</ele>
        <time>2023-11-11T21:33:33Z</time>
      </trkpt>
      <trkpt lat="45.93714" lon="-1.00617">
        <ele>3</ele>
        <time>2023-11-11T21:35:37Z</time>
      </trkpt>
      <trkpt lat="45.9382" lon="-1.00563">
        <ele>3.5</ele>
        <time>2023-11-11T21:38:07Z</time>
      </trkpt>
      <trkpt lat="45.93904" lon="-1.00502">
        <ele>3</ele>
        <time>2023-11-11T21:40:13Z</time>
      </trkpt>
      <trkpt lat="45.93953" lon="-1.00462">
        <ele>1</ele>
        <time>2023-11-11T21:41:28Z</time>
      </trkpt>
      <trkpt lat="45.93967" lon="-1.00446">
        <ele>2</ele>
        <time>2023-11-11T21:41:52Z</time>
      </trkpt>
      <trkpt lat="45.93977" lon="-1.00423">
        <ele>2</ele>
        <time>2023-11-11T21:42:17Z</time>
      </trkpt>
      <trkpt lat="45.93989" lon="-1.00403">
        <ele>3</ele>
        <time>2023-11-11T21:42:42Z</time>
      </trkpt>
      <trkpt lat="45.94081" lon="-1.0031">
        <ele>2</ele>
        <time>2023-11-11T21:45:12Z</time>
      </trkpt>
      <trkpt lat="45.94427" lon="-0.99909">
        <ele>1</ele>
        <time>2023-11-11T21:55:05Z</time>
      </trkpt>
      <trkpt lat="45.94576" lon="-0.99753">
        <ele>2</ele>
        <time>2023-11-11T21:59:11Z</time>
      </trkpt>
      <trkpt lat="45.94594" lon="-0.99748">
        <ele>2</ele>
        <time>2023-11-11T21:59:35Z</time>
      </trkpt>
      <trkpt lat="45.94605" lon="-0.99769">
        <ele>2</ele>
        <time>2023-11-11T21:59:59Z</time>
      </trkpt>
      <trkpt lat="45.94639" lon="-0.9979">
        <ele>1</ele>
        <time>2023-11-11T22:00:49Z</time>
      </trkpt>
      <trkpt lat="45.94691" lon="-0.99756">
        <ele>1</ele>
        <time>2023-11-11T22:02:05Z</time>
      </trkpt>
      <trkpt lat="45.94774" lon="-0.99697">
        <ele>3.9</ele>
        <time>2023-11-11T22:04:09Z</time>
      </trkpt>
      <trkpt lat="45.94809" lon="-0.99679">
        <ele>-1</ele>
        <time>2023-11-11T22:04:58Z</time>
      </trkpt>
      <trkpt lat="45.94862" lon="-0.99647">
        <ele>3.1</ele>
        <time>2023-11-11T22:06:15Z</time>
      </trkpt>
      <trkpt lat="45.9488" lon="-0.99641">
        <ele>3.1</ele>
        <time>2023-11-11T22:06:40Z</time>
      </trkpt>
      <trkpt lat="45.94934" lon="-0.99614">
        <ele>1</ele>
        <time>2023-11-11T22:07:56Z</time>
      </trkpt>
      <trkpt lat="45.94987" lon="-0.99591">
        <ele>1</ele>
        <time>2023-11-11T22:09:10Z</time>
      </trkpt>
      <trkpt lat="45.94999" lon="-0.9957">
        <ele>1</ele>
        <time>2023-11-11T22:09:35Z</time>
      </trkpt>
      <trkpt lat="45.9499" lon="-0.9952">
        <ele>2</ele>
        <time>2023-11-11T22:10:23Z</time>
      </trkpt>
      <trkpt lat="45.9501" lon="-0.99499">
        <ele>2</ele>
        <time>2023-11-11T22:10:56Z</time>
      </trkpt>
      <trkpt lat="45.94996" lon="-0.99482">
        <ele>2</ele>
        <time>2023-11-11T22:11:20Z</time>
      </trkpt>
      <trkpt lat="45.94985" lon="-0.99461">
        <ele>2</ele>
        <time>2023-11-11T22:11:45Z</time>
      </trkpt>
      <trkpt lat="45.94976" lon="-0.99408">
        <ele>3</ele>
        <time>2023-11-11T22:12:35Z</time>
      </trkpt>
      <trkpt lat="45.94946" lon="-0.99342">
        <ele>3</ele>
        <time>2023-11-11T22:13:49Z</time>
      </trkpt>
      <trkpt lat="45.94893" lon="-0.99202">
        <ele>4</ele>
        <time>2023-11-11T22:16:16Z</time>
      </trkpt>
      <trkpt lat="45.94879" lon="-0.99153">
        <ele>5</ele>
        <time>2023-11-11T22:17:06Z</time>
      </trkpt>
      <trkpt lat="45.94859" lon="-0.99107">
        <ele>6</ele>
        <time>2023-11-11T22:17:56Z</time>
      </trkpt>
      <trkpt lat="45.94842" lon="-0.99095">
        <ele>6</ele>
        <time>2023-11-11T22:18:21Z</time>
      </trkpt>
      <trkpt lat="45.94808" lon="-0.9912">
        <ele>6</ele>
        <time>2023-11-11T22:19:12Z</time>
      </trkpt>
      <trkpt lat="45.94791" lon="-0.99128">
        <ele>5</ele>
        <time>2023-11-11T22:19:36Z</time>
      </trkpt>
      <trkpt lat="45.94772" lon="-0.99133">
        <ele>5</ele>
        <time>2023-11-11T22:20:02Z</time>
      </trkpt>
      <trkpt lat="45.94739" lon="-0.99157">
        <ele>4</ele>
        <time>2023-11-11T22:20:51Z</time>
      </trkpt>
      <trkpt lat="45.94721" lon="-0.99163">
        <ele>3</ele>
        <time>2023-11-11T22:21:16Z</time>
      </trkpt>
      <trkpt lat="45.94668" lon="-0.99195">
        <ele>2</ele>
        <time>2023-11-11T22:22:33Z</time>
      </trkpt>
      <trkpt lat="45.9465" lon="-0.99195">
        <ele>1</ele>
        <time>2023-11-11T22:22:57Z</time>
      </trkpt>
      <trkpt lat="45.94575" lon="-0.99182">
        <ele>3</ele>
        <time>2023-11-11T22:24:37Z</time>
      </trkpt>
      <trkpt lat="45.94538" lon="-0.99173">
        <ele>3.1</ele>
        <time>2023-11-11T22:25:27Z</time>
      </trkpt>
      <trkpt lat="45.94465" lon="-0.99163">
        <ele>1</ele>
        <time>2023-11-11T22:27:05Z</time>
      </trkpt>
      <trkpt lat="45.9443" lon="-0.99178">
        <ele>2</ele>
        <time>2023-11-11T22:27:54Z</time>
      </trkpt>
      <trkpt lat="45.94416" lon="-0.9916">
        <ele>2</ele>
        <time>2023-11-11T22:28:19Z</time>
      </trkpt>
      <trkpt lat="45.94359" lon="-0.99055">
        <ele>2</ele>
        <time>2023-11-11T22:30:23Z</time>
      </trkpt>
      <trkpt lat="45.94338" lon="-0.99011">
        <ele>2</ele>
        <time>2023-11-11T22:31:12Z</time>
      </trkpt>
      <trkpt lat="45.94309" lon="-0.98941">
        <ele>3</ele>
        <time>2023-11-11T22:32:28Z</time>
      </trkpt>
      <trkpt lat="45.94294" lon="-0.98925">
        <ele>3</ele>
        <time>2023-11-11T22:32:53Z</time>
      </trkpt>
      <trkpt lat="45.94229" lon="-0.98872">
        <ele>3</ele>
        <time>2023-11-11T22:34:32Z</time>
      </trkpt>
      <trkpt lat="45.94184" lon="-0.98828">
        <ele>3</ele>
        <time>2023-11-11T22:35:45Z</time>
      </trkpt>
      <trkpt lat="45.9417" lon="-0.98809">
        <ele>4</ele>
        <time>2023-11-11T22:36:11Z</time>
      </trkpt>
      <trkpt lat="45.94152" lon="-0.988">
        <ele>3</ele>
        <time>2023-11-11T22:36:36Z</time>
      </trkpt>
      <trkpt lat="45.94134" lon="-0.98795">
        <ele>3</ele>
        <time>2023-11-11T22:37:01Z</time>
      </trkpt>
      <trkpt lat="45.94118" lon="-0.98782">
        <ele>3</ele>
        <time>2023-11-11T22:37:25Z</time>
      </trkpt>
      <trkpt lat="45.94118" lon="-0.98755">
        <ele>3</ele>
        <time>2023-11-11T22:37:50Z</time>
      </trkpt>
      <trkpt lat="45.94112" lon="-0.98731">
        <ele>3</ele>
        <time>2023-11-11T22:38:14Z</time>
      </trkpt>
      <trkpt lat="45.94096" lon="-0.98716">
        <ele>2</ele>
        <time>2023-11-11T22:38:39Z</time>
      </trkpt>
      <trkpt lat="45.94031" lon="-0.98667">
        <ele>2</ele>
        <time>2023-11-11T22:40:17Z</time>
      </trkpt>
      <trkpt lat="45.93983" lon="-0.98624">
        <ele>3</ele>
        <time>2023-11-11T22:41:33Z</time>
      </trkpt>
      <trkpt lat="45.93968" lon="-0.98607">
        <ele>3</ele>
        <time>2023-11-11T22:41:58Z</time>
      </trkpt>
      <trkpt lat="45.9392" lon="-0.98569">
        <ele>2</ele>
        <time>2023-11-11T22:43:11Z</time>
      </trkpt>
      <trkpt lat="45.93885" lon="-0.98546">
        <ele>2</ele>
        <time>2023-11-11T22:44:03Z</time>
      </trkpt>
      <trkpt lat="45.93846" lon="-0.98489">
        <ele>3</ele>
        <time>2023-11-11T22:45:17Z</time>
      </trkpt>
      <trkpt lat="45.93817" lon="-0.98457">
        <ele>4</ele>
        <time>2023-11-11T22:46:06Z</time>
      </trkpt>
      <trkpt lat="45.93798" lon="-0.98453">
        <ele>4</ele>
        <time>2023-11-11T22:46:31Z</time>
      </trkpt>
      <trkpt lat="45.93779" lon="-0.98453">
        <ele>4</ele>
        <time>2023-11-11T22:46:57Z</time>
      </trkpt>
      <trkpt lat="45.93761" lon="-0.98456">
        <ele>4</ele>
        <time>2023-11-11T22:47:21Z</time>
      </trkpt>
      <trkpt lat="45.93746" lon="-0.9844">
        <ele>4</ele>
        <time>2023-11-11T22:47:46Z</time>
      </trkpt>
      <trkpt lat="45.93757" lon="-0.98389">
        <ele>4</ele>
        <time>2023-11-11T22:48:35Z</time>
      </trkpt>
      <trkpt lat="45.93753" lon="-0.98362">
        <ele>3</ele>
        <time>2023-11-11T22:49:01Z</time>
      </trkpt>
      <trkpt lat="45.93727" lon="-0.98326">
        <ele>3</ele>
        <time>2023-11-11T22:49:49Z</time>
      </trkpt>
      <trkpt lat="45.93725" lon="-0.98299">
        <ele>3</ele>
        <time>2023-11-11T22:50:14Z</time>
      </trkpt>
      <trkpt lat="45.93646" lon="-0.98186">
        <ele>3</ele>
        <time>2023-11-11T22:52:43Z</time>
      </trkpt>
      <trkpt lat="45.93621" lon="-0.98145">
        <ele>4</ele>
        <time>2023-11-11T22:53:34Z</time>
      </trkpt>
      <trkpt lat="45.93578" lon="-0.98092">
        <ele>3</ele>
        <time>2023-11-11T22:54:49Z</time>
      </trkpt>
      <trkpt lat="45.93528" lon="-0.98011">
        <ele>2</ele>
        <time>2023-11-11T22:56:30Z</time>
      </trkpt>
      <trkpt lat="45.93506" lon="-0.97968">
        <ele>1</ele>
        <time>2023-11-11T22:57:19Z</time>
      </trkpt>
      <trkpt lat="45.93497" lon="-0.97945">
        <ele>1</ele>
        <time>2023-11-11T22:57:44Z</time>
      </trkpt>
      <trkpt lat="45.93484" lon="-0.97925">
        <ele>1</ele>
        <time>2023-11-11T22:58:09Z</time>
      </trkpt>
      <trkpt lat="45.93469" lon="-0.97877">
        <ele>2</ele>
        <time>2023-11-11T22:58:58Z</time>
      </trkpt>
      <trkpt lat="45.93458" lon="-0.97855">
        <ele>3</ele>
        <time>2023-11-11T22:59:23Z</time>
      </trkpt>
      <trkpt lat="45.93441" lon="-0.97808">
        <ele>4</ele>
        <time>2023-11-11T23:00:12Z</time>
      </trkpt>
      <trkpt lat="45.93421" lon="-0.97762">
        <ele>5</ele>
        <time>2023-11-11T23:01:03Z</time>
      </trkpt>
      <trkpt lat="45.93414" lon="-0.97737">
        <ele>5</ele>
        <time>2023-11-11T23:01:28Z</time>
      </trkpt>
      <trkpt lat="45.93373" lon="-0.97649">
        <ele>5</ele>
        <time>2023-11-11T23:03:06Z</time>
      </trkpt>
      <trkpt lat="45.93325" lon="-0.97534">
        <ele>5</ele>
        <time>2023-11-11T23:05:11Z</time>
      </trkpt>
      <trkpt lat="45.93285" lon="-0.97446">
        <ele>6</ele>
        <time>2023-11-11T23:06:48Z</time>
      </trkpt>
      <trkpt lat="45.93273" lon="-0.97425">
        <ele>6</ele>
        <time>2023-11-11T23:07:13Z</time>
      </trkpt>
      <trkpt lat="45.93266" lon="-0.97399">
        <ele>6</ele>
        <time>2023-11-11T23:07:39Z</time>
      </trkpt>
      <trkpt lat="45.93235" lon="-0.97334">
        <ele>6</ele>
        <time>2023-11-11T23:08:52Z</time>
      </trkpt>
      <trkpt lat="45.93227" lon="-0.9731">
        <ele>6</ele>
        <time>2023-11-11T23:09:17Z</time>
      </trkpt>
      <trkpt lat="45.93214" lon="-0.97291">
        <ele>6</ele>
        <time>2023-11-11T23:09:42Z</time>
      </trkpt>
      <trkpt lat="45.93204" lon="-0.97269">
        <ele>6</ele>
        <time>2023-11-11T23:10:06Z</time>
      </trkpt>
      <trkpt lat="45.93198" lon="-0.97244">
        <ele>6</ele>
        <time>2023-11-11T23:10:31Z</time>
      </trkpt>
      <trkpt lat="45.93189" lon="-0.97221">
        <ele>5</ele>
        <time>2023-11-11T23:10:55Z</time>
      </trkpt>
      <trkpt lat="45.93167" lon="-0.97178">
        <ele>5</ele>
        <time>2023-11-11T23:11:45Z</time>
      </trkpt>
      <trkpt lat="45.93162" lon="-0.97152">
        <ele>5</ele>
        <time>2023-11-11T23:12:10Z</time>
      </trkpt>
      <trkpt lat="45.93145" lon="-0.97105">
        <ele>4</ele>
        <time>2023-11-11T23:12:59Z</time>
      </trkpt>
      <trkpt lat="45.93148" lon="-0.97079">
        <ele>4</ele>
        <time>2023-11-11T23:13:23Z</time>
      </trkpt>
      <trkpt lat="45.93162" lon="-0.97062">
        <ele>4</ele>
        <time>2023-11-11T23:13:48Z</time>
      </trkpt>
      <trkpt lat="45.93199" lon="-0.96996">
        <ele>3</ele>
        <time>2023-11-11T23:15:07Z</time>
      </trkpt>
      <trkpt lat="45.93261" lon="-0.96833">
        <ele>4</ele>
        <time>2023-11-11T23:17:59Z</time>
      </trkpt>
      <trkpt lat="45.93274" lon="-0.96814">
        <ele>4</ele>
        <time>2023-11-11T23:18:24Z</time>
      </trkpt>
      <trkpt lat="45.93291" lon="-0.96804">
        <ele>4</ele>
        <time>2023-11-11T23:18:48Z</time>
      </trkpt>
      <trkpt lat="45.93309" lon="-0.96799">
        <ele>4</ele>
        <time>2023-11-11T23:19:13Z</time>
      </trkpt>
      <trkpt lat="45.93328" lon="-0.9679">
        <ele>4</ele>
        <time>2023-11-11T23:19:39Z</time>
      </trkpt>
      <trkpt lat="45.93344" lon="-0.96776">
        <ele>4</ele>
        <time>2023-11-11T23:20:04Z</time>
      </trkpt>
      <trkpt lat="45.93369" lon="-0.96738">
        <ele>4</ele>
        <time>2023-11-11T23:20:53Z</time>
      </trkpt>
      <trkpt lat="45.93387" lon="-0.96692">
        <ele>4</ele>
        <time>2023-11-11T23:21:42Z</time>
      </trkpt>
      <trkpt lat="45.9342" lon="-0.96668">
        <ele>5</ele>
        <time>2023-11-11T23:22:31Z</time>
      </trkpt>
      <trkpt lat="45.93434" lon="-0.9665">
        <ele>6</ele>
        <time>2023-11-11T23:22:56Z</time>
      </trkpt>
      <trkpt lat="45.93451" lon="-0.96639">
        <ele>7</ele>
        <time>2023-11-11T23:23:21Z</time>
      </trkpt>
      <trkpt lat="45.93466" lon="-0.96625">
        <ele>7</ele>
        <time>2023-11-11T23:23:45Z</time>
      </trkpt>
      <trkpt lat="45.93495" lon="-0.96591">
        <ele>10</ele>
        <time>2023-11-11T23:24:35Z</time>
      </trkpt>
      <trkpt lat="45.93512" lon="-0.96577">
        <ele>10</ele>
        <time>2023-11-11T23:25:01Z</time>
      </trkpt>
      <trkpt lat="45.93517" lon="-0.9655">
        <ele>10</ele>
        <time>2023-11-11T23:25:27Z</time>
      </trkpt>
      <trkpt lat="45.93504" lon="-0.96531">
        <ele>9</ele>
        <time>2023-11-11T23:25:52Z</time>
      </trkpt>
      <trkpt lat="45.93514" lon="-0.96509">
        <ele>9</ele>
        <time>2023-11-11T23:26:16Z</time>
      </trkpt>
      <trkpt lat="45.93517" lon="-0.96483">
        <ele>10</ele>
        <time>2023-11-11T23:26:41Z</time>
      </trkpt>
      <trkpt lat="45.93515" lon="-0.96457">
        <ele>10</ele>
        <time>2023-11-11T23:27:05Z</time>
      </trkpt>
      <trkpt lat="45.93524" lon="-0.96407">
        <ele>12</ele>
        <time>2023-11-11T23:27:53Z</time>
      </trkpt>
      <trkpt lat="45.93517" lon="-0.96354">
        <ele>13</ele>
        <time>2023-11-11T23:28:43Z</time>
      </trkpt>
      <trkpt lat="45.93514" lon="-0.963">
        <ele>14</ele>
        <time>2023-11-11T23:29:33Z</time>
      </trkpt>
      <trkpt lat="45.93509" lon="-0.96274">
        <ele>15</ele>
        <time>2023-11-11T23:29:58Z</time>
      </trkpt>
      <trkpt lat="45.93493" lon="-0.96258">
        <ele>15</ele>
        <time>2023-11-11T23:30:24Z</time>
      </trkpt>
      <trkpt lat="45.93475" lon="-0.96254">
        <ele>15</ele>
        <time>2023-11-11T23:30:49Z</time>
      </trkpt>
      <trkpt lat="45.93457" lon="-0.96255">
        <ele>15</ele>
        <time>2023-11-11T23:31:13Z</time>
      </trkpt>
      <trkpt lat="45.93422" lon="-0.96266">
        <ele>15</ele>
        <time>2023-11-11T23:32:00Z</time>
      </trkpt>
      <trkpt lat="45.93401" lon="-0.9627">
        <ele>14</ele>
        <time>2023-11-11T23:32:29Z</time>
      </trkpt>
      <trkpt lat="45.93456" lon="-0.96265">
        <ele>15</ele>
        <time>2023-11-11T23:33:42Z</time>
      </trkpt>
      <trkpt lat="45.93474" lon="-0.96255">
        <ele>15</ele>
        <time>2023-11-11T23:34:08Z</time>
      </trkpt>
      <trkpt lat="45.93492" lon="-0.96252">
        <ele>15</ele>
        <time>2023-11-11T23:34:32Z</time>
      </trkpt>
      <trkpt lat="45.9351" lon="-0.96254">
        <ele>15</ele>
        <time>2023-11-11T23:34:56Z</time>
      </trkpt>
      <trkpt lat="45.93527" lon="-0.96242">
        <ele>15</ele>
        <time>2023-11-11T23:35:22Z</time>
      </trkpt>
      <trkpt lat="45.93546" lon="-0.96237">
        <ele>14</ele>
        <time>2023-11-11T23:35:47Z</time>
      </trkpt>
      <trkpt lat="45.93559" lon="-0.96256">
        <ele>14</ele>
        <time>2023-11-11T23:36:12Z</time>
      </trkpt>
      <trkpt lat="45.93577" lon="-0.96302">
        <ele>14</ele>
        <time>2023-11-11T23:37:01Z</time>
      </trkpt>
      <trkpt lat="45.93574" lon="-0.96328">
        <ele>14</ele>
        <time>2023-11-11T23:37:25Z</time>
      </trkpt>
      <trkpt lat="45.9356" lon="-0.9628">
        <ele>14</ele>
        <time>2023-11-11T23:38:14Z</time>
      </trkpt>
      <trkpt lat="45.93565" lon="-0.96253">
        <ele>14</ele>
        <time>2023-11-11T23:38:40Z</time>
      </trkpt>
      <trkpt lat="45.93581" lon="-0.96241">
        <ele>14</ele>
        <time>2023-11-11T23:39:04Z</time>
      </trkpt>
      <trkpt lat="45.93599" lon="-0.96236">
        <ele>14</ele>
        <time>2023-11-11T23:39:28Z</time>
      </trkpt>
      <trkpt lat="45.93618" lon="-0.96236">
        <ele>14</ele>
        <time>2023-11-11T23:39:54Z</time>
      </trkpt>
      <trkpt lat="45.93629" lon="-0.96215">
        <ele>14</ele>
        <time>2023-11-11T23:40:18Z</time>
      </trkpt>
      <trkpt lat="45.93657" lon="-0.9618">
        <ele>13</ele>
        <time>2023-11-11T23:41:08Z</time>
      </trkpt>
      <trkpt lat="45.93668" lon="-0.96159">
        <ele>13</ele>
        <time>2023-11-11T23:41:32Z</time>
      </trkpt>
      <trkpt lat="45.93699" lon="-0.96189">
        <ele>14</ele>
        <time>2023-11-11T23:42:22Z</time>
      </trkpt>
      <trkpt lat="45.93711" lon="-0.9621">
        <ele>14</ele>
        <time>2023-11-11T23:42:47Z</time>
      </trkpt>
      <trkpt lat="45.9372" lon="-0.96233">
        <ele>14</ele>
        <time>2023-11-11T23:43:12Z</time>
      </trkpt>
      <trkpt lat="45.93738" lon="-0.96244">
        <ele>14</ele>
        <time>2023-11-11T23:43:38Z</time>
      </trkpt>
      <trkpt lat="45.93749" lon="-0.96223">
        <ele>14</ele>
        <time>2023-11-11T23:44:02Z</time>
      </trkpt>
      <trkpt lat="45.93728" lon="-0.96224">
        <ele>14</ele>
        <time>2023-11-11T23:44:30Z</time>
      </trkpt>
      <trkpt lat="45.93737" lon="-0.96202">
        <ele>14</ele>
        <time>2023-11-11T23:44:54Z</time>
      </trkpt>
      <trkpt lat="45.93774" lon="-0.96195">
        <ele>14</ele>
        <time>2023-11-11T23:45:44Z</time>
      </trkpt>
      <trkpt lat="45.93789" lon="-0.96181">
        <ele>15</ele>
        <time>2023-11-11T23:46:07Z</time>
      </trkpt>
      <trkpt lat="45.93808" lon="-0.96185">
        <ele>15</ele>
        <time>2023-11-11T23:46:33Z</time>
      </trkpt>
      <trkpt lat="45.93845" lon="-0.96178">
        <ele>16</ele>
        <time>2023-11-11T23:47:23Z</time>
      </trkpt>
      <trkpt lat="45.93863" lon="-0.96186">
        <ele>16</ele>
        <time>2023-11-11T23:47:48Z</time>
      </trkpt>
      <trkpt lat="45.93898" lon="-0.9617">
        <ele>17</ele>
        <time>2023-11-11T23:48:37Z</time>
      </trkpt>
      <trkpt lat="45.93919" lon="-0.96171">
        <ele>18</ele>
        <time>2023-11-11T23:49:05Z</time>
      </trkpt>
      <trkpt lat="45.93938" lon="-0.96163">
        <ele>18</ele>
        <time>2023-11-11T23:49:31Z</time>
      </trkpt>
      <trkpt lat="45.93956" lon="-0.9616">
        <ele>18</ele>
        <time>2023-11-11T23:49:56Z</time>
      </trkpt>
      <trkpt lat="45.93974" lon="-0.96152">
        <ele>18</ele>
        <time>2023-11-11T23:50:21Z</time>
      </trkpt>
      <trkpt lat="45.94029" lon="-0.96141">
        <ele>18</ele>
        <time>2023-11-11T23:51:35Z</time>
      </trkpt>
      <trkpt lat="45.94048" lon="-0.96143">
        <ele>18</ele>
        <time>2023-11-11T23:52:00Z</time>
      </trkpt>
      <trkpt lat="45.94062" lon="-0.96159">
        <ele>18</ele>
        <time>2023-11-11T23:52:24Z</time>
      </trkpt>
      <trkpt lat="45.94084" lon="-0.96203">
        <ele>18</ele>
        <time>2023-11-11T23:53:14Z</time>
      </trkpt>
      <trkpt lat="45.9409" lon="-0.96228">
        <ele>19</ele>
        <time>2023-11-11T23:53:39Z</time>
      </trkpt>
      <trkpt lat="45.94104" lon="-0.96246">
        <ele>19</ele>
        <time>2023-11-11T23:54:04Z</time>
      </trkpt>
      <trkpt lat="45.94141" lon="-0.96253">
        <ele>18</ele>
        <time>2023-11-11T23:54:54Z</time>
      </trkpt>
      <trkpt lat="45.9415" lon="-0.96276">
        <ele>18</ele>
        <time>2023-11-11T23:55:18Z</time>
      </trkpt>
      <trkpt lat="45.94167" lon="-0.96267">
        <ele>18</ele>
        <time>2023-11-11T23:55:43Z</time>
      </trkpt>
      <trkpt lat="45.94186" lon="-0.96269">
        <ele>18</ele>
        <time>2023-11-11T23:56:08Z</time>
      </trkpt>
      <trkpt lat="45.94195" lon="-0.96247">
        <ele>18</ele>
        <time>2023-11-11T23:56:32Z</time>
      </trkpt>
      <trkpt lat="45.94196" lon="-0.96221">
        <ele>17</ele>
        <time>2023-11-11T23:56:56Z</time>
      </trkpt>
      <trkpt lat="45.94209" lon="-0.96204">
        <ele>17</ele>
        <time>2023-11-11T23:57:19Z</time>
      </trkpt>
      <trkpt lat="45.94246" lon="-0.96196">
        <ele>16</ele>
        <time>2023-11-11T23:58:09Z</time>
      </trkpt>
      <trkpt lat="45.9426" lon="-0.9618">
        <ele>16</ele>
        <time>2023-11-11T23:58:33Z</time>
      </trkpt>
      <trkpt lat="45.9427" lon="-0.9613">
        <ele>15</ele>
        <time>2023-11-11T23:59:21Z</time>
      </trkpt>
      <trkpt lat="45.94283" lon="-0.9611">
        <ele>15</ele>
        <time>2023-11-11T23:59:47Z</time>
      </trkpt>
      <trkpt lat="45.94298" lon="-0.96096">
        <ele>14</ele>
        <time>2023-11-12T00:00:11Z</time>
      </trkpt>
      <trkpt lat="45.94307" lon="-0.96073">
        <ele>14</ele>
        <time>2023-11-12T00:00:35Z</time>
      </trkpt>
      <trkpt lat="45.94325" lon="-0.96067">
        <ele>13</ele>
        <time>2023-11-12T00:01:00Z</time>
      </trkpt>
      <trkpt lat="45.94341" lon="-0.96055">
        <ele>12</ele>
        <time>2023-11-12T00:01:24Z</time>
      </trkpt>
      <trkpt lat="45.94348" lon="-0.9603">
        <ele>11</ele>
        <time>2023-11-12T00:01:49Z</time>
      </trkpt>
      <trkpt lat="45.94364" lon="-0.96019">
        <ele>10</ele>
        <time>2023-11-12T00:02:12Z</time>
      </trkpt>
      <trkpt lat="45.94382" lon="-0.96013">
        <ele>9</ele>
        <time>2023-11-12T00:02:37Z</time>
      </trkpt>
      <trkpt lat="45.94401" lon="-0.96011">
        <ele>8</ele>
        <time>2023-11-12T00:03:03Z</time>
      </trkpt>
      <trkpt lat="45.94419" lon="-0.96014">
        <ele>7</ele>
        <time>2023-11-12T00:03:27Z</time>
      </trkpt>
      <trkpt lat="45.94436" lon="-0.96002">
        <ele>6</ele>
        <time>2023-11-12T00:03:52Z</time>
      </trkpt>
      <trkpt lat="45.94442" lon="-0.95977">
        <ele>6</ele>
        <time>2023-11-12T00:04:17Z</time>
      </trkpt>
      <trkpt lat="45.94439" lon="-0.95951">
        <ele>5</ele>
        <time>2023-11-12T00:04:41Z</time>
      </trkpt>
      <trkpt lat="45.94428" lon="-0.9593">
        <ele>5</ele>
        <time>2023-11-12T00:05:05Z</time>
      </trkpt>
      <trkpt lat="45.94429" lon="-0.95904">
        <ele>4</ele>
        <time>2023-11-12T00:05:30Z</time>
      </trkpt>
      <trkpt lat="45.9444" lon="-0.95883">
        <ele>4</ele>
        <time>2023-11-12T00:05:54Z</time>
      </trkpt>
      <trkpt lat="45.94448" lon="-0.9586">
        <ele>4</ele>
        <time>2023-11-12T00:06:18Z</time>
      </trkpt>
      <trkpt lat="45.94466" lon="-0.95868">
        <ele>4</ele>
        <time>2023-11-12T00:06:43Z</time>
      </trkpt>
      <trkpt lat="45.9448" lon="-0.95885">
        <ele>4</ele>
        <time>2023-11-12T00:07:07Z</time>
      </trkpt>
      <trkpt lat="45.94498" lon="-0.95887">
        <ele>4</ele>
        <time>2023-11-12T00:07:32Z</time>
      </trkpt>
      <trkpt lat="45.94462" lon="-0.9587">
        <ele>4</ele>
        <time>2023-11-12T00:08:22Z</time>
      </trkpt>
      <trkpt lat="45.94443" lon="-0.95868">
        <ele>4</ele>
        <time>2023-11-12T00:08:47Z</time>
      </trkpt>
      <trkpt lat="45.94429" lon="-0.95851">
        <ele>4</ele>
        <time>2023-11-12T00:09:12Z</time>
      </trkpt>
      <trkpt lat="45.9442" lon="-0.95827">
        <ele>3</ele>
        <time>2023-11-12T00:09:37Z</time>
      </trkpt>
      <trkpt lat="45.94406" lon="-0.9581">
        <ele>4</ele>
        <time>2023-11-12T00:10:02Z</time>
      </trkpt>
      <trkpt lat="45.94397" lon="-0.95787">
        <ele>4</ele>
        <time>2023-11-12T00:10:26Z</time>
      </trkpt>
      <trkpt lat="45.94409" lon="-0.95767">
        <ele>4</ele>
        <time>2023-11-12T00:10:51Z</time>
      </trkpt>
      <trkpt lat="45.94393" lon="-0.95753">
        <ele>4</ele>
        <time>2023-11-12T00:11:16Z</time>
      </trkpt>
      <trkpt lat="45.94375" lon="-0.95757">
        <ele>5</ele>
        <time>2023-11-12T00:11:40Z</time>
      </trkpt>
      <trkpt lat="45.94359" lon="-0.95742">
        <ele>5</ele>
        <time>2023-11-12T00:12:05Z</time>
      </trkpt>
      <trkpt lat="45.9436" lon="-0.95715">
        <ele>5</ele>
        <time>2023-11-12T00:12:31Z</time>
      </trkpt>
      <trkpt lat="45.94367" lon="-0.95689">
        <ele>4</ele>
        <time>2023-11-12T00:12:56Z</time>
      </trkpt>
      <trkpt lat="45.94335" lon="-0.95662">
        <ele>4</ele>
        <time>2023-11-12T00:13:46Z</time>
      </trkpt>
      <trkpt lat="45.9432" lon="-0.95646">
        <ele>4</ele>
        <time>2023-11-12T00:14:11Z</time>
      </trkpt>
      <trkpt lat="45.94295" lon="-0.95609">
        <ele>4</ele>
        <time>2023-11-12T00:14:59Z</time>
      </trkpt>
      <trkpt lat="45.9428" lon="-0.95593">
        <ele>4</ele>
        <time>2023-11-12T00:15:24Z</time>
      </trkpt>
      <trkpt lat="45.94271" lon="-0.9557">
        <ele>4</ele>
        <time>2023-11-12T00:15:48Z</time>
      </trkpt>
      <trkpt lat="45.94268" lon="-0.95518">
        <ele>4</ele>
        <time>2023-11-12T00:16:37Z</time>
      </trkpt>
      <trkpt lat="45.94262" lon="-0.95493">
        <ele>3</ele>
        <time>2023-11-12T00:17:01Z</time>
      </trkpt>
      <trkpt lat="45.94249" lon="-0.95474">
        <ele>3</ele>
        <time>2023-11-12T00:17:26Z</time>
      </trkpt>
      <trkpt lat="45.94234" lon="-0.95458">
        <ele>3</ele>
        <time>2023-11-12T00:17:51Z</time>
      </trkpt>
      <trkpt lat="45.94222" lon="-0.95408">
        <ele>3</ele>
        <time>2023-11-12T00:18:40Z</time>
      </trkpt>
      <trkpt lat="45.94204" lon="-0.95399">
        <ele>3</ele>
        <time>2023-11-12T00:19:05Z</time>
      </trkpt>
      <trkpt lat="45.94187" lon="-0.95409">
        <ele>4</ele>
        <time>2023-11-12T00:19:30Z</time>
      </trkpt>
      <trkpt lat="45.9413" lon="-0.95411">
        <ele>4</ele>
        <time>2023-11-12T00:20:46Z</time>
      </trkpt>
      <trkpt lat="45.94125" lon="-0.95436">
        <ele>4</ele>
        <time>2023-11-12T00:21:10Z</time>
      </trkpt>
      <trkpt lat="45.94134" lon="-0.95459">
        <ele>5</ele>
        <time>2023-11-12T00:21:35Z</time>
      </trkpt>
      <trkpt lat="45.94117" lon="-0.9545">
        <ele>4</ele>
        <time>2023-11-12T00:21:59Z</time>
      </trkpt>
      <trkpt lat="45.94088" lon="-0.95417">
        <ele>3</ele>
        <time>2023-11-12T00:22:48Z</time>
      </trkpt>
      <trkpt lat="45.94088" lon="-0.95443">
        <ele>4</ele>
        <time>2023-11-12T00:23:12Z</time>
      </trkpt>
      <trkpt lat="45.94072" lon="-0.95457">
        <ele>4</ele>
        <time>2023-11-12T00:23:37Z</time>
      </trkpt>
      <trkpt lat="45.94016" lon="-0.95472">
        <ele>4</ele>
        <time>2023-11-12T00:24:53Z</time>
      </trkpt>
      <trkpt lat="45.93998" lon="-0.95472">
        <ele>4</ele>
        <time>2023-11-12T00:25:17Z</time>
      </trkpt>
      <trkpt lat="45.93979" lon="-0.95477">
        <ele>4</ele>
        <time>2023-11-12T00:25:43Z</time>
      </trkpt>
      <trkpt lat="45.93968" lon="-0.95497">
        <ele>5</ele>
        <time>2023-11-12T00:26:07Z</time>
      </trkpt>
      <trkpt lat="45.93931" lon="-0.955">
        <ele>4</ele>
        <time>2023-11-12T00:26:56Z</time>
      </trkpt>
      <trkpt lat="45.93876" lon="-0.9551">
        <ele>4</ele>
        <time>2023-11-12T00:28:10Z</time>
      </trkpt>
      <trkpt lat="45.93858" lon="-0.95516">
        <ele>3</ele>
        <time>2023-11-12T00:28:35Z</time>
      </trkpt>
      <trkpt lat="45.93842" lon="-0.95529">
        <ele>4</ele>
        <time>2023-11-12T00:28:59Z</time>
      </trkpt>
      <trkpt lat="45.93806" lon="-0.9554">
        <ele>4</ele>
        <time>2023-11-12T00:29:48Z</time>
      </trkpt>
      <trkpt lat="45.93769" lon="-0.95546">
        <ele>5</ele>
        <time>2023-11-12T00:30:38Z</time>
      </trkpt>
      <trkpt lat="45.93753" lon="-0.9556">
        <ele>5</ele>
        <time>2023-11-12T00:31:03Z</time>
      </trkpt>
      <trkpt lat="45.93756" lon="-0.95586">
        <ele>6</ele>
        <time>2023-11-12T00:31:28Z</time>
      </trkpt>
      <trkpt lat="45.93771" lon="-0.95601">
        <ele>7</ele>
        <time>2023-11-12T00:31:52Z</time>
      </trkpt>
      <trkpt lat="45.93779" lon="-0.95624">
        <ele>8</ele>
        <time>2023-11-12T00:32:16Z</time>
      </trkpt>
      <trkpt lat="45.93797" lon="-0.95629">
        <ele>8</ele>
        <time>2023-11-12T00:32:40Z</time>
      </trkpt>
      <trkpt lat="45.93779" lon="-0.95624">
        <ele>8</ele>
        <time>2023-11-12T00:33:05Z</time>
      </trkpt>
      <trkpt lat="45.93762" lon="-0.95635">
        <ele>9</ele>
        <time>2023-11-12T00:33:30Z</time>
      </trkpt>
      <trkpt lat="45.93744" lon="-0.9563">
        <ele>8</ele>
        <time>2023-11-12T00:33:54Z</time>
      </trkpt>
      <trkpt lat="45.93707" lon="-0.95635">
        <ele>5</ele>
        <time>2023-11-12T00:34:44Z</time>
      </trkpt>
      <trkpt lat="45.9367" lon="-0.95644">
        <ele>3</ele>
        <time>2023-11-12T00:35:34Z</time>
      </trkpt>
      <trkpt lat="45.93654" lon="-0.95657">
        <ele>3</ele>
        <time>2023-11-12T00:35:58Z</time>
      </trkpt>
      <trkpt lat="45.93646" lon="-0.95633">
        <ele>2</ele>
        <time>2023-11-12T00:36:23Z</time>
      </trkpt>
      <trkpt lat="45.93625" lon="-0.95588">
        <ele>1</ele>
        <time>2023-11-12T00:37:13Z</time>
      </trkpt>
      <trkpt lat="45.93606" lon="-0.95583">
        <ele>1</ele>
        <time>2023-11-12T00:37:39Z</time>
      </trkpt>
      <trkpt lat="45.93593" lon="-0.95601">
        <ele>1</ele>
        <time>2023-11-12T00:38:03Z</time>
      </trkpt>
      <trkpt lat="45.93574" lon="-0.95597">
        <ele>2</ele>
        <time>2023-11-12T00:38:29Z</time>
      </trkpt>
      <trkpt lat="45.93565" lon="-0.95574">
        <ele>2</ele>
        <time>2023-11-12T00:38:53Z</time>
      </trkpt>
      <trkpt lat="45.93546" lon="-0.95577">
        <ele>4</ele>
        <time>2023-11-12T00:39:19Z</time>
      </trkpt>
      <trkpt lat="45.93533" lon="-0.95596">
        <ele>4</ele>
        <time>2023-11-12T00:39:43Z</time>
      </trkpt>
      <trkpt lat="45.93524" lon="-0.95619">
        <ele>4</ele>
        <time>2023-11-12T00:40:08Z</time>
      </trkpt>
      <trkpt lat="45.93509" lon="-0.95634">
        <ele>5</ele>
        <time>2023-11-12T00:40:32Z</time>
      </trkpt>
      <trkpt lat="45.93497" lon="-0.95653">
        <ele>5</ele>
        <time>2023-11-12T00:40:56Z</time>
      </trkpt>
      <trkpt lat="45.93497" lon="-0.95707">
        <ele>5</ele>
        <time>2023-11-12T00:41:46Z</time>
      </trkpt>
      <trkpt lat="45.93482" lon="-0.95722">
        <ele>5</ele>
        <time>2023-11-12T00:42:11Z</time>
      </trkpt>
      <trkpt lat="45.93491" lon="-0.95744">
        <ele>5</ele>
        <time>2023-11-12T00:42:34Z</time>
      </trkpt>
      <trkpt lat="45.93508" lon="-0.95756">
        <ele>5</ele>
        <time>2023-11-12T00:43:00Z</time>
      </trkpt>
      <trkpt lat="45.9356" lon="-0.95782">
        <ele>7</ele>
        <time>2023-11-12T00:44:13Z</time>
      </trkpt>
      <trkpt lat="45.93542" lon="-0.95779">
        <ele>7</ele>
        <time>2023-11-12T00:44:37Z</time>
      </trkpt>
      <trkpt lat="45.93508" lon="-0.95759">
        <ele>5</ele>
        <time>2023-11-12T00:45:26Z</time>
      </trkpt>
      <trkpt lat="45.93492" lon="-0.95744">
        <ele>5</ele>
        <time>2023-11-12T00:45:52Z</time>
      </trkpt>
      <trkpt lat="45.93477" lon="-0.95728">
        <ele>5</ele>
        <time>2023-11-12T00:46:17Z</time>
      </trkpt>
      <trkpt lat="45.9347" lon="-0.95704">
        <ele>5</ele>
        <time>2023-11-12T00:46:41Z</time>
      </trkpt>
      <trkpt lat="45.93481" lon="-0.95682">
        <ele>5</ele>
        <time>2023-11-12T00:47:06Z</time>
      </trkpt>
      <trkpt lat="45.93503" lon="-0.95607">
        <ele>6</ele>
        <time>2023-11-12T00:48:22Z</time>
      </trkpt>
      <trkpt lat="45.93513" lon="-0.95586">
        <ele>6</ele>
        <time>2023-11-12T00:48:45Z</time>
      </trkpt>
      <trkpt lat="45.93529" lon="-0.95571">
        <ele>5</ele>
        <time>2023-11-12T00:49:11Z</time>
      </trkpt>
      <trkpt lat="45.93531" lon="-0.95545">
        <ele>4</ele>
        <time>2023-11-12T00:49:35Z</time>
      </trkpt>
      <trkpt lat="45.93516" lon="-0.95529">
        <ele>5</ele>
        <time>2023-11-12T00:50:00Z</time>
      </trkpt>
      <trkpt lat="45.93498" lon="-0.9552">
        <ele>5</ele>
        <time>2023-11-12T00:50:25Z</time>
      </trkpt>
      <trkpt lat="45.93443" lon="-0.95507">
        <ele>6</ele>
        <time>2023-11-12T00:51:40Z</time>
      </trkpt>
      <trkpt lat="45.93414" lon="-0.95473">
        <ele>6</ele>
        <time>2023-11-12T00:52:30Z</time>
      </trkpt>
      <trkpt lat="45.93378" lon="-0.95473">
        <ele>5</ele>
        <time>2023-11-12T00:53:18Z</time>
      </trkpt>
      <trkpt lat="45.93346" lon="-0.95443">
        <ele>3</ele>
        <time>2023-11-12T00:54:09Z</time>
      </trkpt>
      <trkpt lat="45.93304" lon="-0.95391">
        <ele>3</ele>
        <time>2023-11-12T00:55:23Z</time>
      </trkpt>
      <trkpt lat="45.93287" lon="-0.95379">
        <ele>3</ele>
        <time>2023-11-12T00:55:48Z</time>
      </trkpt>
      <trkpt lat="45.93273" lon="-0.95362">
        <ele>4</ele>
        <time>2023-11-12T00:56:12Z</time>
      </trkpt>
      <trkpt lat="45.93241" lon="-0.95335">
        <ele>5</ele>
        <time>2023-11-12T00:57:02Z</time>
      </trkpt>
      <trkpt lat="45.93165" lon="-0.95257">
        <ele>3</ele>
        <time>2023-11-12T00:59:06Z</time>
      </trkpt>
      <trkpt lat="45.93116" lon="-0.95221">
        <ele>2</ele>
        <time>2023-11-12T01:00:20Z</time>
      </trkpt>
      <trkpt lat="45.93103" lon="-0.95201">
        <ele>2</ele>
        <time>2023-11-12T01:00:45Z</time>
      </trkpt>
      <trkpt lat="45.93086" lon="-0.95192">
        <ele>2</ele>
        <time>2023-11-12T01:01:09Z</time>
      </trkpt>
      <trkpt lat="45.93055" lon="-0.95163">
        <ele>2</ele>
        <time>2023-11-12T01:01:59Z</time>
      </trkpt>
      <trkpt lat="45.92973" lon="-0.951">
        <ele>2</ele>
        <time>2023-11-12T01:04:03Z</time>
      </trkpt>
      <trkpt lat="45.92936" lon="-0.951">
        <ele>2</ele>
        <time>2023-11-12T01:04:52Z</time>
      </trkpt>
      <trkpt lat="45.92866" lon="-0.95063">
        <ele>3</ele>
        <time>2023-11-12T01:06:32Z</time>
      </trkpt>
      <trkpt lat="45.92851" lon="-0.95046">
        <ele>2</ele>
        <time>2023-11-12T01:06:57Z</time>
      </trkpt>
      <trkpt lat="45.92781" lon="-0.95005">
        <ele>2</ele>
        <time>2023-11-12T01:08:38Z</time>
      </trkpt>
      <trkpt lat="45.92744" lon="-0.95003">
        <ele>2</ele>
        <time>2023-11-12T01:09:28Z</time>
      </trkpt>
      <trkpt lat="45.92725" lon="-0.94999">
        <ele>3</ele>
        <time>2023-11-12T01:09:53Z</time>
      </trkpt>
      <trkpt lat="45.92708" lon="-0.94986">
        <ele>4</ele>
        <time>2023-11-12T01:10:19Z</time>
      </trkpt>
      <trkpt lat="45.9268" lon="-0.94952">
        <ele>4</ele>
        <time>2023-11-12T01:11:08Z</time>
      </trkpt>
      <trkpt lat="45.92661" lon="-0.94952">
        <ele>4</ele>
        <time>2023-11-12T01:11:33Z</time>
      </trkpt>
      <trkpt lat="45.92647" lon="-0.94967">
        <ele>5</ele>
        <time>2023-11-12T01:11:56Z</time>
      </trkpt>
    </trkseg>
  </trk>
  <trk>
    <name><![CDATA[Rochefort _VilleAubergeJ_9km20798918]]></name>
    <desc><![CDATA[Proposition Etienne 9km]]></desc>
    <extensions>
      <line xmlns="http://www.topografix.com/GPX/gpx_style/0/2">
        <color>00FF00</color>
        <width>4</width>
      </line>
    </extensions>
    <trkseg>
      <trkpt lat="45.92042" lon="-0.96047">
        <ele>3.68823</ele>
        <time>2023-11-12T01:12:01.000Z</time>
      </trkpt>
      <trkpt lat="45.92033" lon="-0.96048">
        <ele>3.65345</ele>
        <time>2023-11-12T01:12:09.746Z</time>
      </trkpt>
      <trkpt lat="45.92018" lon="-0.96049">
        <ele>3.72978</ele>
        <time>2023-11-12T01:12:24.702Z</time>
      </trkpt>
      <trkpt lat="45.91809" lon="-0.96064">
        <ele>3.5194</ele>
        <time>2023-11-12T01:15:49.240Z</time>
      </trkpt>
      <trkpt lat="45.91748" lon="-0.96071">
        <ele>3.64854</ele>
        <time>2023-11-12T01:16:49.630Z</time>
      </trkpt>
      <trkpt lat="45.91714" lon="-0.96071">
        <ele>4.11922</ele>
        <time>2023-11-12T01:17:24.430Z</time>
      </trkpt>
      <trkpt lat="45.91714" lon="-0.96075">
        <ele>4.24821</ele>
        <time>2023-11-12T01:17:27.590Z</time>
      </trkpt>
      <trkpt lat="45.91714" lon="-0.96071">
        <ele>4.11922</ele>
        <time>2023-11-12T01:17:29.977Z</time>
      </trkpt>
      <trkpt lat="45.91714" lon="-0.96067">
        <ele>3.9774</ele>
        <time>2023-11-12T01:17:32.365Z</time>
      </trkpt>
      <trkpt lat="45.91709" lon="-0.96065">
        <ele>4.09926</ele>
        <time>2023-11-12T01:17:37.841Z</time>
      </trkpt>
      <trkpt lat="45.91717" lon="-0.9605">
        <ele>3.51998</ele>
        <time>2023-11-12T01:17:49.139Z</time>
      </trkpt>
      <trkpt lat="45.91722" lon="-0.96029">
        <ele>3.47791</ele>
        <time>2023-11-12T01:18:04.152Z</time>
      </trkpt>
      <trkpt lat="45.91724" lon="-0.96026">
        <ele>3.4456</ele>
        <time>2023-11-12T01:18:06.891Z</time>
      </trkpt>
      <trkpt lat="45.91729" lon="-0.95995">
        <ele>3.53785</ele>
        <time>2023-11-12T01:18:28.878Z</time>
      </trkpt>
      <trkpt lat="45.91733" lon="-0.95993">
        <ele>3.46257</ele>
        <time>2023-11-12T01:18:32.812Z</time>
      </trkpt>
      <trkpt lat="45.91746" lon="-0.9599">
        <ele>3.2188</ele>
        <time>2023-11-12T01:18:45.014Z</time>
      </trkpt>
      <trkpt lat="45.91774" lon="-0.95983">
        <ele>2.92704</ele>
        <time>2023-11-12T01:19:12.017Z</time>
      </trkpt>
      <trkpt lat="45.91783" lon="-0.9598">
        <ele>2.97521</ele>
        <time>2023-11-12T01:19:21.223Z</time>
      </trkpt>
      <trkpt lat="45.91785" lon="-0.95971">
        <ele>3.02183</ele>
        <time>2023-11-12T01:19:27.810Z</time>
      </trkpt>
      <trkpt lat="45.91785" lon="-0.95957">
        <ele>3.08289</ele>
        <time>2023-11-12T01:19:37.546Z</time>
      </trkpt>
      <trkpt lat="45.91787" lon="-0.95911">
        <ele>3.19134</ele>
        <time>2023-11-12T01:20:09.314Z</time>
      </trkpt>
      <trkpt lat="45.91794" lon="-0.95849">
        <ele>3.61955</ele>
        <time>2023-11-12T01:20:53.477Z</time>
      </trkpt>
      <trkpt lat="45.91802" lon="-0.95788">
        <ele>4.12541</ele>
        <time>2023-11-12T01:21:37.384Z</time>
      </trkpt>
      <trkpt lat="45.91807" lon="-0.95763">
        <ele>3.70748</ele>
        <time>2023-11-12T01:21:53.926Z</time>
      </trkpt>
      <trkpt lat="45.91812" lon="-0.9574">
        <ele>3.25736</ele>
        <time>2023-11-12T01:22:09.079Z</time>
      </trkpt>
      <trkpt lat="45.91826" lon="-0.95698">
        <ele>3.47384</ele>
        <time>2023-11-12T01:22:41.508Z</time>
      </trkpt>
      <trkpt lat="45.91838" lon="-0.95706">
        <ele>3.22278</ele>
        <time>2023-11-12T01:22:53.750Z</time>
      </trkpt>
      <trkpt lat="45.91845" lon="-0.95705">
        <ele>3.1086</ele>
        <time>2023-11-12T01:23:00.314Z</time>
      </trkpt>
      <trkpt lat="45.91892" lon="-0.95707">
        <ele>3.06608</ele>
        <time>2023-11-12T01:23:46.288Z</time>
      </trkpt>
      <trkpt lat="45.91967" lon="-0.9571">
        <ele>3.07738</ele>
        <time>2023-11-12T01:24:59.885Z</time>
      </trkpt>
      <trkpt lat="45.9211" lon="-0.95714">
        <ele>3.01451</ele>
        <time>2023-11-12T01:27:19.928Z</time>
      </trkpt>
      <trkpt lat="45.92118" lon="-0.95715">
        <ele>3.01321</ele>
        <time>2023-11-12T01:27:27.797Z</time>
      </trkpt>
      <trkpt lat="45.92129" lon="-0.95717">
        <ele>3.14393</ele>
        <time>2023-11-12T01:27:39.073Z</time>
      </trkpt>
      <trkpt lat="45.92129" lon="-0.95708">
        <ele>3.13402</ele>
        <time>2023-11-12T01:27:45.182Z</time>
      </trkpt>
      <trkpt lat="45.92129" lon="-0.95698">
        <ele>3.11613</ele>
        <time>2023-11-12T01:27:51.949Z</time>
      </trkpt>
      <trkpt lat="45.92131" lon="-0.9557">
        <ele>3.18905</ele>
        <time>2023-11-12T01:29:19.494Z</time>
      </trkpt>
      <trkpt lat="45.92133" lon="-0.95554">
        <ele>3.17</ele>
        <time>2023-11-12T01:29:30.524Z</time>
      </trkpt>
      <trkpt lat="45.92136" lon="-0.95546">
        <ele>3.09149</ele>
        <time>2023-11-12T01:29:36.492Z</time>
      </trkpt>
      <trkpt lat="45.9214" lon="-0.95543">
        <ele>3.03295</ele>
        <time>2023-11-12T01:29:40.744Z</time>
      </trkpt>
      <trkpt lat="45.92146" lon="-0.95539">
        <ele>3.05373</ele>
        <time>2023-11-12T01:29:47.292Z</time>
      </trkpt>
      <trkpt lat="45.92194" lon="-0.95511">
        <ele>3.31582</ele>
        <time>2023-11-12T01:30:38.881Z</time>
      </trkpt>
      <trkpt lat="45.92208" lon="-0.95503">
        <ele>3.65661</ele>
        <time>2023-11-12T01:30:54.733Z</time>
      </trkpt>
      <trkpt lat="45.92228" lon="-0.95515">
        <ele>3.59569</ele>
        <time>2023-11-12T01:31:15.799Z</time>
      </trkpt>
      <trkpt lat="45.9233" lon="-0.95579">
        <ele>3.86083</ele>
        <time>2023-11-12T01:33:05.721Z</time>
      </trkpt>
      <trkpt lat="45.92334" lon="-0.95582">
        <ele>3.9001</ele>
        <time>2023-11-12T01:33:10.266Z</time>
      </trkpt>
      <trkpt lat="45.92338" lon="-0.95584">
        <ele>3.91997</ele>
        <time>2023-11-12T01:33:14.479Z</time>
      </trkpt>
      <trkpt lat="45.92445" lon="-0.95653">
        <ele>3.93426</ele>
        <time>2023-11-12T01:35:09.502Z</time>
      </trkpt>
      <trkpt lat="45.92453" lon="-0.95658">
        <ele>3.86229</ele>
        <time>2023-11-12T01:35:17.842Z</time>
      </trkpt>
      <trkpt lat="45.92507" lon="-0.95695">
        <ele>3.78961</ele>
        <time>2023-11-12T01:36:16.274Z</time>
      </trkpt>
      <trkpt lat="45.92511" lon="-0.95697">
        <ele>3.79071</ele>
        <time>2023-11-12T01:36:20.430Z</time>
      </trkpt>
      <trkpt lat="45.92516" lon="-0.957">
        <ele>3.77931</ele>
        <time>2023-11-12T01:36:25.708Z</time>
      </trkpt>
      <trkpt lat="45.92519" lon="-0.95701">
        <ele>3.77218</ele>
        <time>2023-11-12T01:36:28.706Z</time>
      </trkpt>
      <trkpt lat="45.9252" lon="-0.95699">
        <ele>3.78653</ele>
        <time>2023-11-12T01:36:30.429Z</time>
      </trkpt>
      <trkpt lat="45.92521" lon="-0.95697">
        <ele>3.79873</ele>
        <time>2023-11-12T01:36:32.147Z</time>
      </trkpt>
      <trkpt lat="45.92523" lon="-0.95691">
        <ele>3.82113</ele>
        <time>2023-11-12T01:36:36.753Z</time>
      </trkpt>
      <trkpt lat="45.92522" lon="-0.95689">
        <ele>3.83241</ele>
        <time>2023-11-12T01:36:38.467Z</time>
      </trkpt>
      <trkpt lat="45.92522" lon="-0.95687">
        <ele>3.83646</ele>
        <time>2023-11-12T01:36:39.843Z</time>
      </trkpt>
      <trkpt lat="45.92522" lon="-0.95685">
        <ele>3.8388</ele>
        <time>2023-11-12T01:36:41.214Z</time>
      </trkpt>
      <trkpt lat="45.92523" lon="-0.95682">
        <ele>3.83099</ele>
        <time>2023-11-12T01:36:43.460Z</time>
      </trkpt>
      <trkpt lat="45.92525" lon="-0.9568">
        <ele>3.80601</ele>
        <time>2023-11-12T01:36:45.775Z</time>
      </trkpt>
      <trkpt lat="45.92526" lon="-0.9568">
        <ele>3.79271</ele>
        <time>2023-11-12T01:36:46.716Z</time>
      </trkpt>
      <trkpt lat="45.92525" lon="-0.95666">
        <ele>3.77652</ele>
        <time>2023-11-12T01:36:56.266Z</time>
      </trkpt>
      <trkpt lat="45.92522" lon="-0.95643">
        <ele>3.90629</ele>
        <time>2023-11-12T01:37:12.624Z</time>
      </trkpt>
      <trkpt lat="45.92523" lon="-0.95627">
        <ele>3.97017</ele>
        <time>2023-11-12T01:37:23.775Z</time>
      </trkpt>
      <trkpt lat="45.92526" lon="-0.9561">
        <ele>3.95272</ele>
        <time>2023-11-12T01:37:35.684Z</time>
      </trkpt>
      <trkpt lat="45.92584" lon="-0.95434">
        <ele>3.83233</ele>
        <time>2023-11-12T01:39:48.143Z</time>
      </trkpt>
      <trkpt lat="45.92592" lon="-0.95416">
        <ele>3.91486</ele>
        <time>2023-11-12T01:40:02.963Z</time>
      </trkpt>
      <trkpt lat="45.92603" lon="-0.95403">
        <ele>3.95562</ele>
        <time>2023-11-12T01:40:17.048Z</time>
      </trkpt>
      <trkpt lat="45.92612" lon="-0.95395">
        <ele>3.75724</ele>
        <time>2023-11-12T01:40:26.847Z</time>
      </trkpt>
      <trkpt lat="45.92615" lon="-0.95393">
        <ele>3.67115</ele>
        <time>2023-11-12T01:40:29.844Z</time>
      </trkpt>
      <trkpt lat="45.92627" lon="-0.95389">
        <ele>3.58172</ele>
        <time>2023-11-12T01:40:41.656Z</time>
      </trkpt>
      <trkpt lat="45.9263" lon="-0.95389">
        <ele>3.64087</ele>
        <time>2023-11-12T01:40:44.784Z</time>
      </trkpt>
      <trkpt lat="45.92639" lon="-0.95387">
        <ele>3.87954</ele>
        <time>2023-11-12T01:40:54.476Z</time>
      </trkpt>
      <trkpt lat="45.92705" lon="-0.95393">
        <ele>3.7484</ele>
        <time>2023-11-12T01:41:58.921Z</time>
      </trkpt>
      <trkpt lat="45.92705" lon="-0.95395">
        <ele>3.74265</ele>
        <time>2023-11-12T01:42:00.268Z</time>
      </trkpt>
      <trkpt lat="45.92706" lon="-0.95396">
        <ele>3.747</ele>
        <time>2023-11-12T01:42:01.475Z</time>
      </trkpt>
      <trkpt lat="45.92706" lon="-0.95397">
        <ele>3.745</ele>
        <time>2023-11-12T01:42:02.151Z</time>
      </trkpt>
      <trkpt lat="45.92707" lon="-0.95398">
        <ele>3.75163</ele>
        <time>2023-11-12T01:42:03.366Z</time>
      </trkpt>
      <trkpt lat="45.92708" lon="-0.95399">
        <ele>3.75941</ele>
        <time>2023-11-12T01:42:04.584Z</time>
      </trkpt>
      <trkpt lat="45.9271" lon="-0.95399">
        <ele>3.77657</ele>
        <time>2023-11-12T01:42:06.598Z</time>
      </trkpt>
      <trkpt lat="45.92711" lon="-0.95398">
        <ele>3.78382</ele>
        <time>2023-11-12T01:42:07.814Z</time>
      </trkpt>
      <trkpt lat="45.92712" lon="-0.95397">
        <ele>3.79025</ele>
        <time>2023-11-12T01:42:09.028Z</time>
      </trkpt>
      <trkpt lat="45.92712" lon="-0.95395">
        <ele>3.78818</ele>
        <time>2023-11-12T01:42:10.386Z</time>
      </trkpt>
      <trkpt lat="45.92713" lon="-0.95394">
        <ele>3.79481</ele>
        <time>2023-11-12T01:42:11.601Z</time>
      </trkpt>
      <trkpt lat="45.92722" lon="-0.95394">
        <ele>3.90373</ele>
        <time>2023-11-12T01:42:20.762Z</time>
      </trkpt>
      <trkpt lat="45.9282" lon="-0.954">
        <ele>3.87276</ele>
        <time>2023-11-12T01:43:56.841Z</time>
      </trkpt>
      <trkpt lat="45.92837" lon="-0.95396">
        <ele>3.78518</ele>
        <time>2023-11-12T01:44:13.469Z</time>
      </trkpt>
      <trkpt lat="45.92849" lon="-0.95385">
        <ele>3.76232</ele>
        <time>2023-11-12T01:44:27.354Z</time>
      </trkpt>
      <trkpt lat="45.92857" lon="-0.95372">
        <ele>3.78626</ele>
        <time>2023-11-12T01:44:39.264Z</time>
      </trkpt>
      <trkpt lat="45.92866" lon="-0.95348">
        <ele>3.68288</ele>
        <time>2023-11-12T01:44:57.550Z</time>
      </trkpt>
      <trkpt lat="45.9289" lon="-0.95288">
        <ele>3.86899</ele>
        <time>2023-11-12T01:45:45.318Z</time>
      </trkpt>
      <trkpt lat="45.92892" lon="-0.95279">
        <ele>3.82603</ele>
        <time>2023-11-12T01:45:51.633Z</time>
      </trkpt>
      <trkpt lat="45.92893" lon="-0.95269">
        <ele>3.78956</ele>
        <time>2023-11-12T01:45:58.414Z</time>
      </trkpt>
      <trkpt lat="45.92912" lon="-0.95222">
        <ele>3.74477</ele>
        <time>2023-11-12T01:46:35.352Z</time>
      </trkpt>
      <trkpt lat="45.9292" lon="-0.95212">
        <ele>3.74492</ele>
        <time>2023-11-12T01:46:45.746Z</time>
      </trkpt>
      <trkpt lat="45.92929" lon="-0.95195">
        <ele>3.67112</ele>
        <time>2023-11-12T01:47:00.095Z</time>
      </trkpt>
      <trkpt lat="45.9294" lon="-0.95173">
        <ele>3.75691</ele>
        <time>2023-11-12T01:47:18.834Z</time>
      </trkpt>
      <trkpt lat="45.92949" lon="-0.95162">
        <ele>3.93353</ele>
        <time>2023-11-12T01:47:30.966Z</time>
      </trkpt>
      <trkpt lat="45.92954" lon="-0.95157">
        <ele>3.9914</ele>
        <time>2023-11-12T01:47:37.116Z</time>
      </trkpt>
      <trkpt lat="45.92974" lon="-0.95172">
        <ele>3.93037</ele>
        <time>2023-11-12T01:47:59.050Z</time>
      </trkpt>
      <trkpt lat="45.93068" lon="-0.95249">
        <ele>3.59647</ele>
        <time>2023-11-12T01:49:44.121Z</time>
      </trkpt>
      <trkpt lat="45.9308" lon="-0.95214">
        <ele>3.71931</ele>
        <time>2023-11-12T01:50:11.106Z</time>
      </trkpt>
      <trkpt lat="45.93091" lon="-0.95223">
        <ele>3.66761</ele>
        <time>2023-11-12T01:50:23.360Z</time>
      </trkpt>
      <trkpt lat="45.931" lon="-0.95228">
        <ele>3.73848</ele>
        <time>2023-11-12T01:50:33.037Z</time>
      </trkpt>
      <trkpt lat="45.93117" lon="-0.95224">
        <ele>3.9483</ele>
        <time>2023-11-12T01:50:50.577Z</time>
      </trkpt>
      <trkpt lat="45.93125" lon="-0.95229">
        <ele>3.94152</ele>
        <time>2023-11-12T01:50:59.110Z</time>
      </trkpt>
      <trkpt lat="45.9315" lon="-0.95249">
        <ele>3.56203</ele>
        <time>2023-11-12T01:51:26.047Z</time>
      </trkpt>
      <trkpt lat="45.93175" lon="-0.95267">
        <ele>3.65249</ele>
        <time>2023-11-12T01:51:53.735Z</time>
      </trkpt>
      <trkpt lat="45.93187" lon="-0.95285">
        <ele>3.6256</ele>
        <time>2023-11-12T01:52:10.657Z</time>
      </trkpt>
      <trkpt lat="45.932" lon="-0.95298">
        <ele>3.73536</ele>
        <time>2023-11-12T01:52:26.519Z</time>
      </trkpt>
      <trkpt lat="45.93243" lon="-0.95338">
        <ele>2.57692</ele>
        <time>2023-11-12T01:53:13.401Z</time>
      </trkpt>
      <trkpt lat="45.93286" lon="-0.95381">
        <ele>3.26969</ele>
        <time>2023-11-12T01:54:06.907Z</time>
      </trkpt>
      <trkpt lat="45.9329" lon="-0.95385">
        <ele>3.24464</ele>
        <time>2023-11-12T01:54:11.609Z</time>
      </trkpt>
      <trkpt lat="45.93301" lon="-0.95388">
        <ele>3.05405</ele>
        <time>2023-11-12T01:54:22.032Z</time>
      </trkpt>
      <trkpt lat="45.93322" lon="-0.95413">
        <ele>4.08352</ele>
        <time>2023-11-12T01:54:52.142Z</time>
      </trkpt>
      <trkpt lat="45.93368" lon="-0.95471">
        <ele>3.93989</ele>
        <time>2023-11-12T01:55:51.697Z</time>
      </trkpt>
      <trkpt lat="45.93403" lon="-0.95471">
        <ele>3.75042</ele>
        <time>2023-11-12T01:56:25.448Z</time>
      </trkpt>
      <trkpt lat="45.93408" lon="-0.95474">
        <ele>3.54846</ele>
        <time>2023-11-12T01:56:30.196Z</time>
      </trkpt>
      <trkpt lat="45.93438" lon="-0.95515">
        <ele>3.15834</ele>
        <time>2023-11-12T01:57:09.623Z</time>
      </trkpt>
      <trkpt lat="45.93472" lon="-0.95525">
        <ele>3.54482</ele>
        <time>2023-11-12T01:57:44.844Z</time>
      </trkpt>
      <trkpt lat="45.93495" lon="-0.95529">
        <ele>3.93885</ele>
        <time>2023-11-12T01:58:08.793Z</time>
      </trkpt>
      <trkpt lat="45.9352" lon="-0.95532">
        <ele>3.26259</ele>
        <time>2023-11-12T01:58:31.463Z</time>
      </trkpt>
      <trkpt lat="45.93537" lon="-0.95551">
        <ele>4.55814</ele>
        <time>2023-11-12T01:58:57.051Z</time>
      </trkpt>
      <trkpt lat="45.93557" lon="-0.95558">
        <ele>4.5428</ele>
        <time>2023-11-12T01:59:17.186Z</time>
      </trkpt>
      <trkpt lat="45.93578" lon="-0.95566">
        <ele>4.46589</ele>
        <time>2023-11-12T01:59:38.256Z</time>
      </trkpt>
      <trkpt lat="45.93568" lon="-0.95584">
        <ele>2.8551</ele>
        <time>2023-11-12T01:59:52.002Z</time>
      </trkpt>
      <trkpt lat="45.9357" lon="-0.95588">
        <ele>1.86198</ele>
        <time>2023-11-12T01:59:54.941Z</time>
      </trkpt>
      <trkpt lat="45.93586" lon="-0.95609">
        <ele>-1.82483</ele>
        <time>2023-11-12T02:00:13.526Z</time>
      </trkpt>
      <trkpt lat="45.93593" lon="-0.95599">
        <ele>0.40369</ele>
        <time>2023-11-12T02:00:35.074Z</time>
      </trkpt>
      <trkpt lat="45.93615" lon="-0.95581">
        <ele>3.85128</ele>
        <time>2023-11-12T02:01:14.270Z</time>
      </trkpt>
      <trkpt lat="45.93638" lon="-0.95562">
        <ele>2.71215</ele>
        <time>2023-11-12T02:01:37.135Z</time>
      </trkpt>
      <trkpt lat="45.9364" lon="-0.95561">
        <ele>2.37531</ele>
        <time>2023-11-12T02:01:38.952Z</time>
      </trkpt>
      <trkpt lat="45.93642" lon="-0.95561">
        <ele>2.11912</ele>
        <time>2023-11-12T02:01:40.667Z</time>
      </trkpt>
      <trkpt lat="45.93644" lon="-0.95561">
        <ele>1.85816</ele>
        <time>2023-11-12T02:01:42.383Z</time>
      </trkpt>
      <trkpt lat="45.93647" lon="-0.95562">
        <ele>1.65721</ele>
        <time>2023-11-12T02:01:45.025Z</time>
      </trkpt>
      <trkpt lat="45.93649" lon="-0.95565">
        <ele>1.98243</ele>
        <time>2023-11-12T02:01:49.135Z</time>
      </trkpt>
      <trkpt lat="45.9365" lon="-0.95567">
        <ele>2.24838</ele>
        <time>2023-11-12T02:01:51.981Z</time>
      </trkpt>
      <trkpt lat="45.93651" lon="-0.9557">
        <ele>2.66352</ele>
        <time>2023-11-12T02:01:56.192Z</time>
      </trkpt>
      <trkpt lat="45.93651" lon="-0.95573">
        <ele>3.08036</ele>
        <time>2023-11-12T02:02:00.301Z</time>
      </trkpt>
      <trkpt lat="45.93651" lon="-0.95578">
        <ele>3.56566</ele>
        <time>2023-11-12T02:02:05.752Z</time>
      </trkpt>
      <trkpt lat="45.93649" lon="-0.95586">
        <ele>3.81499</ele>
        <time>2023-11-12T02:02:12.375Z</time>
      </trkpt>
      <trkpt lat="45.93635" lon="-0.95616">
        <ele>3.23155</ele>
        <time>2023-11-12T02:02:35.334Z</time>
      </trkpt>
      <trkpt lat="45.93636" lon="-0.95619">
        <ele>2.78847</ele>
        <time>2023-11-12T02:02:37.319Z</time>
      </trkpt>
      <trkpt lat="45.9365" lon="-0.95638">
        <ele>3.96542</ele>
        <time>2023-11-12T02:03:00.271Z</time>
      </trkpt>
      <trkpt lat="45.93651" lon="-0.95641">
        <ele>4.27631</ele>
        <time>2023-11-12T02:03:03.829Z</time>
      </trkpt>
      <trkpt lat="45.93655" lon="-0.95635">
        <ele>4.22825</ele>
        <time>2023-11-12T02:03:09.354Z</time>
      </trkpt>
      <trkpt lat="45.9368" lon="-0.95595">
        <ele>2.91805</ele>
        <time>2023-11-12T02:03:42.352Z</time>
      </trkpt>
      <trkpt lat="45.93693" lon="-0.95592">
        <ele>4.62026</ele>
        <time>2023-11-12T02:04:02.234Z</time>
      </trkpt>
      <trkpt lat="45.93704" lon="-0.95576">
        <ele>3.7532</ele>
        <time>2023-11-12T02:04:15.657Z</time>
      </trkpt>
      <trkpt lat="45.93713" lon="-0.95562">
        <ele>3.04425</ele>
        <time>2023-11-12T02:04:27.032Z</time>
      </trkpt>
      <trkpt lat="45.9372" lon="-0.95552">
        <ele>3.75705</ele>
        <time>2023-11-12T02:04:39.241Z</time>
      </trkpt>
      <trkpt lat="45.93726" lon="-0.95544">
        <ele>4.01302</ele>
        <time>2023-11-12T02:04:48.092Z</time>
      </trkpt>
      <trkpt lat="45.93733" lon="-0.95539">
        <ele>3.87308</ele>
        <time>2023-11-12T02:04:55.349Z</time>
      </trkpt>
      <trkpt lat="45.93742" lon="-0.95545">
        <ele>3.58405</ele>
        <time>2023-11-12T02:05:04.255Z</time>
      </trkpt>
      <trkpt lat="45.93752" lon="-0.95546">
        <ele>3.64667</ele>
        <time>2023-11-12T02:05:14.275Z</time>
      </trkpt>
      <trkpt lat="45.9384" lon="-0.9553">
        <ele>3.74792</ele>
        <time>2023-11-12T02:06:41.549Z</time>
      </trkpt>
      <trkpt lat="45.93857" lon="-0.95518">
        <ele>3.78038</ele>
        <time>2023-11-12T02:07:00.215Z</time>
      </trkpt>
      <trkpt lat="45.93875" lon="-0.95509">
        <ele>4.22305</ele>
        <time>2023-11-12T02:07:20.306Z</time>
      </trkpt>
      <trkpt lat="45.93973" lon="-0.95495">
        <ele>4.09204</ele>
        <time>2023-11-12T02:08:56.469Z</time>
      </trkpt>
      <trkpt lat="45.93976" lon="-0.95484">
        <ele>4.04581</ele>
        <time>2023-11-12T02:09:04.388Z</time>
      </trkpt>
      <trkpt lat="45.9398" lon="-0.95472">
        <ele>3.81803</ele>
        <time>2023-11-12T02:09:12.809Z</time>
      </trkpt>
      <trkpt lat="45.94089" lon="-0.95447">
        <ele>4.28763</ele>
        <time>2023-11-12T02:11:02.460Z</time>
      </trkpt>
      <trkpt lat="45.94123" lon="-0.95439">
        <ele>3.99192</ele>
        <time>2023-11-12T02:11:35.363Z</time>
      </trkpt>
      <trkpt lat="45.94122" lon="-0.95421">
        <ele>3.87461</ele>
        <time>2023-11-12T02:11:47.328Z</time>
      </trkpt>
      <trkpt lat="45.94148" lon="-0.95415">
        <ele>3.24353</ele>
        <time>2023-11-12T02:12:11.336Z</time>
      </trkpt>
      <trkpt lat="45.94192" lon="-0.95405">
        <ele>0.94183</ele>
        <time>2023-11-12T02:12:49.552Z</time>
      </trkpt>
      <trkpt lat="45.94192" lon="-0.95404">
        <ele>0.75957</ele>
        <time>2023-11-12T02:12:50.149Z</time>
      </trkpt>
      <trkpt lat="45.94202" lon="-0.95401">
        <ele>0.11505</ele>
        <time>2023-11-12T02:12:58.912Z</time>
      </trkpt>
      <trkpt lat="45.9421" lon="-0.95399">
        <ele>-0.23663</ele>
        <time>2023-11-12T02:13:05.904Z</time>
      </trkpt>
      <trkpt lat="45.94212" lon="-0.954">
        <ele>-0.08925</ele>
        <time>2023-11-12T02:13:08.501Z</time>
      </trkpt>
      <trkpt lat="45.94216" lon="-0.95401">
        <ele>0.0366</ele>
        <time>2023-11-12T02:13:12.889Z</time>
      </trkpt>
      <trkpt lat="45.9422" lon="-0.95404">
        <ele>0.47296</ele>
        <time>2023-11-12T02:13:18.959Z</time>
      </trkpt>
      <trkpt lat="45.94222" lon="-0.95407">
        <ele>0.92359</ele>
        <time>2023-11-12T02:13:23.771Z</time>
      </trkpt>
      <trkpt lat="45.94224" lon="-0.95411">
        <ele>1.43223</ele>
        <time>2023-11-12T02:13:29.321Z</time>
      </trkpt>
      <trkpt lat="45.94226" lon="-0.95419">
        <ele>2.26684</ele>
        <time>2023-11-12T02:13:38.643Z</time>
      </trkpt>
      <trkpt lat="45.94231" lon="-0.95474">
        <ele>1.08073</ele>
        <time>2023-11-12T02:14:13.106Z</time>
      </trkpt>
      <trkpt lat="45.94241" lon="-0.95473">
        <ele>-0.98699</ele>
        <time>2023-11-12T02:14:21.706Z</time>
      </trkpt>
      <trkpt lat="45.94249" lon="-0.95472">
        <ele>-0.02505</ele>
        <time>2023-11-12T02:14:33.425Z</time>
      </trkpt>
      <trkpt lat="45.94252" lon="-0.95462">
        <ele>0.68008</ele>
        <time>2023-11-12T02:14:43.488Z</time>
      </trkpt>
      <trkpt lat="45.94254" lon="-0.95455">
        <ele>1.19817</ele>
        <time>2023-11-12T02:14:50.612Z</time>
      </trkpt>
      <trkpt lat="45.94257" lon="-0.95453">
        <ele>2.06417</ele>
        <time>2023-11-12T02:14:58.974Z</time>
      </trkpt>
      <trkpt lat="45.94258" lon="-0.95451">
        <ele>2.3367</ele>
        <time>2023-11-12T02:15:01.860Z</time>
      </trkpt>
      <trkpt lat="45.9426" lon="-0.95449">
        <ele>2.86257</ele>
        <time>2023-11-12T02:15:06.972Z</time>
      </trkpt>
      <trkpt lat="45.94261" lon="-0.95443">
        <ele>3.0877</ele>
        <time>2023-11-12T02:15:11.943Z</time>
      </trkpt>
      <trkpt lat="45.94262" lon="-0.95433">
        <ele>3.28144</ele>
        <time>2023-11-12T02:15:19.452Z</time>
      </trkpt>
      <trkpt lat="45.94263" lon="-0.95415">
        <ele>3.57985</ele>
        <time>2023-11-12T02:15:32.713Z</time>
      </trkpt>
      <trkpt lat="45.94266" lon="-0.95403">
        <ele>4.01662</ele>
        <time>2023-11-12T02:15:42.878Z</time>
      </trkpt>
      <trkpt lat="45.94275" lon="-0.95397">
        <ele>4.07012</ele>
        <time>2023-11-12T02:15:52.768Z</time>
      </trkpt>
      <trkpt lat="45.94292" lon="-0.95394">
        <ele>3.26244</ele>
        <time>2023-11-12T02:16:07.462Z</time>
      </trkpt>
      <trkpt lat="45.9434" lon="-0.95388">
        <ele>1.81929</ele>
        <time>2023-11-12T02:16:50.613Z</time>
      </trkpt>
      <trkpt lat="45.94377" lon="-0.95384">
        <ele>2.98941</ele>
        <time>2023-11-12T02:17:30.779Z</time>
      </trkpt>
      <trkpt lat="45.94386" lon="-0.95384">
        <ele>3.17417</ele>
        <time>2023-11-12T02:17:40.186Z</time>
      </trkpt>
      <trkpt lat="45.94396" lon="-0.95386">
        <ele>3.15725</ele>
        <time>2023-11-12T02:17:50.034Z</time>
      </trkpt>
      <trkpt lat="45.94406" lon="-0.95387">
        <ele>3.44115</ele>
        <time>2023-11-12T02:18:00.775Z</time>
      </trkpt>
      <trkpt lat="45.94415" lon="-0.95388">
        <ele>4.23558</ele>
        <time>2023-11-12T02:18:12.560Z</time>
      </trkpt>
      <trkpt lat="45.9442" lon="-0.95388">
        <ele>4.53387</ele>
        <time>2023-11-12T02:18:18.492Z</time>
      </trkpt>
      <trkpt lat="45.94425" lon="-0.95387">
        <ele>4.47984</ele>
        <time>2023-11-12T02:18:23.282Z</time>
      </trkpt>
      <trkpt lat="45.9443" lon="-0.95385">
        <ele>3.73248</ele>
        <time>2023-11-12T02:18:27.734Z</time>
      </trkpt>
      <trkpt lat="45.94436" lon="-0.95384">
        <ele>2.12177</ele>
        <time>2023-11-12T02:18:32.916Z</time>
      </trkpt>
      <trkpt lat="45.9444" lon="-0.95385">
        <ele>1.1628</ele>
        <time>2023-11-12T02:18:36.399Z</time>
      </trkpt>
      <trkpt lat="45.94444" lon="-0.95389">
        <ele>1.02355</ele>
        <time>2023-11-12T02:18:40.780Z</time>
      </trkpt>
      <trkpt lat="45.94447" lon="-0.95394">
        <ele>1.6617</ele>
        <time>2023-11-12T02:18:47.963Z</time>
      </trkpt>
      <trkpt lat="45.94451" lon="-0.95399">
        <ele>2.13774</ele>
        <time>2023-11-12T02:18:54.926Z</time>
      </trkpt>
      <trkpt lat="45.94454" lon="-0.954">
        <ele>1.81605</ele>
        <time>2023-11-12T02:18:57.568Z</time>
      </trkpt>
      <trkpt lat="45.94467" lon="-0.95396">
        <ele>1.31285</ele>
        <time>2023-11-12T02:19:09.200Z</time>
      </trkpt>
      <trkpt lat="45.94474" lon="-0.95393">
        <ele>2.56116</ele>
        <time>2023-11-12T02:19:22.069Z</time>
      </trkpt>
      <trkpt lat="45.94482" lon="-0.9539">
        <ele>3.84052</ele>
        <time>2023-11-12T02:19:35.777Z</time>
      </trkpt>
      <trkpt lat="45.94485" lon="-0.95393">
        <ele>3.88973</ele>
        <time>2023-11-12T02:19:39.512Z</time>
      </trkpt>
      <trkpt lat="45.94486" lon="-0.95399">
        <ele>3.65603</ele>
        <time>2023-11-12T02:19:43.193Z</time>
      </trkpt>
      <trkpt lat="45.94499" lon="-0.95488">
        <ele>4.54104</ele>
        <time>2023-11-12T02:20:47.948Z</time>
      </trkpt>
      <trkpt lat="45.94501" lon="-0.95499">
        <ele>3.83666</ele>
        <time>2023-11-12T02:20:54.730Z</time>
      </trkpt>
      <trkpt lat="45.94502" lon="-0.95509">
        <ele>3.40157</ele>
        <time>2023-11-12T02:21:00.757Z</time>
      </trkpt>
      <trkpt lat="45.94501" lon="-0.95515">
        <ele>3.35381</ele>
        <time>2023-11-12T02:21:04.823Z</time>
      </trkpt>
      <trkpt lat="45.94496" lon="-0.95526">
        <ele>3.72567</ele>
        <time>2023-11-12T02:21:15.011Z</time>
      </trkpt>
      <trkpt lat="45.94489" lon="-0.95539">
        <ele>4.51371</ele>
        <time>2023-11-12T02:21:29.001Z</time>
      </trkpt>
      <trkpt lat="45.94485" lon="-0.95544">
        <ele>4.60433</ele>
        <time>2023-11-12T02:21:34.481Z</time>
      </trkpt>
      <trkpt lat="45.94473" lon="-0.95549">
        <ele>4.38893</ele>
        <time>2023-11-12T02:21:46.104Z</time>
      </trkpt>
      <trkpt lat="45.94467" lon="-0.95553">
        <ele>4.27125</ele>
        <time>2023-11-12T02:21:52.246Z</time>
      </trkpt>
      <trkpt lat="45.94464" lon="-0.95559">
        <ele>4.24118</ele>
        <time>2023-11-12T02:21:57.195Z</time>
      </trkpt>
      <trkpt lat="45.94459" lon="-0.95575">
        <ele>4.61918</ele>
        <time>2023-11-12T02:22:10.376Z</time>
      </trkpt>
      <trkpt lat="45.94414" lon="-0.95673">
        <ele>4.59025</ele>
        <time>2023-11-12T02:23:30.355Z</time>
      </trkpt>
      <trkpt lat="45.94404" lon="-0.95707">
        <ele>4.28966</ele>
        <time>2023-11-12T02:23:54.639Z</time>
      </trkpt>
      <trkpt lat="45.94396" lon="-0.9573">
        <ele>4.48599</ele>
        <time>2023-11-12T02:24:12.779Z</time>
      </trkpt>
      <trkpt lat="45.94394" lon="-0.95734">
        <ele>4.59502</ele>
        <time>2023-11-12T02:24:16.491Z</time>
      </trkpt>
      <trkpt lat="45.94378" lon="-0.95767">
        <ele>4.60948</ele>
        <time>2023-11-12T02:24:43.962Z</time>
      </trkpt>
      <trkpt lat="45.94384" lon="-0.95774">
        <ele>4.07973</ele>
        <time>2023-11-12T02:24:50.591Z</time>
      </trkpt>
      <trkpt lat="45.9438" lon="-0.95781">
        <ele>2.42385</ele>
        <time>2023-11-12T02:24:55.996Z</time>
      </trkpt>
      <trkpt lat="45.94427" lon="-0.95837">
        <ele>2.93032</ele>
        <time>2023-11-12T02:25:57.395Z</time>
      </trkpt>
      <trkpt lat="45.94429" lon="-0.95836">
        <ele>3.52728</ele>
        <time>2023-11-12T02:26:03.213Z</time>
      </trkpt>
      <trkpt lat="45.94449" lon="-0.95856">
        <ele>5.42938</ele>
        <time>2023-11-12T02:26:33.956Z</time>
      </trkpt>
      <trkpt lat="45.94447" lon="-0.95859">
        <ele>4.5378</ele>
        <time>2023-11-12T02:26:36.436Z</time>
      </trkpt>
      <trkpt lat="45.9443" lon="-0.95888">
        <ele>5.12347</ele>
        <time>2023-11-12T02:27:04.151Z</time>
      </trkpt>
      <trkpt lat="45.94424" lon="-0.95899">
        <ele>6.6417</ele>
        <time>2023-11-12T02:27:20.356Z</time>
      </trkpt>
      <trkpt lat="45.9442" lon="-0.95905">
        <ele>6.31979</ele>
        <time>2023-11-12T02:27:25.314Z</time>
      </trkpt>
      <trkpt lat="45.94421" lon="-0.95926">
        <ele>5.62805</ele>
        <time>2023-11-12T02:27:37.871Z</time>
      </trkpt>
      <trkpt lat="45.94419" lon="-0.95936">
        <ele>5.64763</ele>
        <time>2023-11-12T02:27:45.025Z</time>
      </trkpt>
      <trkpt lat="45.94421" lon="-0.9594">
        <ele>5.72861</ele>
        <time>2023-11-12T02:27:48.641Z</time>
      </trkpt>
      <trkpt lat="45.94426" lon="-0.95947">
        <ele>5.80111</ele>
        <time>2023-11-12T02:27:55.706Z</time>
      </trkpt>
      <trkpt lat="45.94427" lon="-0.95951">
        <ele>5.80441</ele>
        <time>2023-11-12T02:27:58.614Z</time>
      </trkpt>
      <trkpt lat="45.94427" lon="-0.95961">
        <ele>5.79933</ele>
        <time>2023-11-12T02:28:05.417Z</time>
      </trkpt>
      <trkpt lat="45.94424" lon="-0.95969">
        <ele>5.83163</ele>
        <time>2023-11-12T02:28:11.712Z</time>
      </trkpt>
      <trkpt lat="45.9442" lon="-0.95981">
        <ele>5.93902</ele>
        <time>2023-11-12T02:28:21.117Z</time>
      </trkpt>
      <trkpt lat="45.9442" lon="-0.95996">
        <ele>5.98744</ele>
        <time>2023-11-12T02:28:31.491Z</time>
      </trkpt>
      <trkpt lat="45.9442" lon="-0.95981">
        <ele>5.93902</ele>
        <time>2023-11-12T02:28:41.573Z</time>
      </trkpt>
      <trkpt lat="45.94424" lon="-0.95969">
        <ele>5.83163</ele>
        <time>2023-11-12T02:28:50.330Z</time>
      </trkpt>
      <trkpt lat="45.94427" lon="-0.95961">
        <ele>5.79933</ele>
        <time>2023-11-12T02:28:56.430Z</time>
      </trkpt>
      <trkpt lat="45.94427" lon="-0.95951">
        <ele>5.80441</ele>
        <time>2023-11-12T02:29:03.263Z</time>
      </trkpt>
      <trkpt lat="45.94426" lon="-0.95947">
        <ele>5.80111</ele>
        <time>2023-11-12T02:29:06.151Z</time>
      </trkpt>
      <trkpt lat="45.94421" lon="-0.9594">
        <ele>5.72861</ele>
        <time>2023-11-12T02:29:12.779Z</time>
      </trkpt>
      <trkpt lat="45.94419" lon="-0.95936">
        <ele>5.64763</ele>
        <time>2023-11-12T02:29:15.905Z</time>
      </trkpt>
      <trkpt lat="45.94421" lon="-0.95926">
        <ele>5.62805</ele>
        <time>2023-11-12T02:29:22.941Z</time>
      </trkpt>
      <trkpt lat="45.9442" lon="-0.95905">
        <ele>6.31979</ele>
        <time>2023-11-12T02:29:39.612Z</time>
      </trkpt>
      <trkpt lat="45.94424" lon="-0.95899">
        <ele>6.6417</ele>
        <time>2023-11-12T02:29:46.379Z</time>
      </trkpt>
      <trkpt lat="45.9443" lon="-0.95888">
        <ele>5.12347</ele>
        <time>2023-11-12T02:29:54.719Z</time>
      </trkpt>
      <trkpt lat="45.94447" lon="-0.95859">
        <ele>4.5378</ele>
        <time>2023-11-12T02:30:18.893Z</time>
      </trkpt>
      <trkpt lat="45.94449" lon="-0.95856">
        <ele>5.42938</ele>
        <time>2023-11-12T02:30:27.765Z</time>
      </trkpt>
      <trkpt lat="45.94429" lon="-0.95836">
        <ele>3.52728</ele>
        <time>2023-11-12T02:30:48.663Z</time>
      </trkpt>
      <trkpt lat="45.94449" lon="-0.95856">
        <ele>5.42938</ele>
        <time>2023-11-12T02:31:19.407Z</time>
      </trkpt>
      <trkpt lat="45.94447" lon="-0.95859">
        <ele>4.5378</ele>
        <time>2023-11-12T02:31:21.886Z</time>
      </trkpt>
      <trkpt lat="45.9443" lon="-0.95888">
        <ele>5.12347</ele>
        <time>2023-11-12T02:31:49.602Z</time>
      </trkpt>
      <trkpt lat="45.94424" lon="-0.95899">
        <ele>6.6417</ele>
        <time>2023-11-12T02:32:05.806Z</time>
      </trkpt>
      <trkpt lat="45.94406" lon="-0.95879">
        <ele>5.79136</ele>
        <time>2023-11-12T02:32:25.736Z</time>
      </trkpt>
      <trkpt lat="45.94399" lon="-0.95869">
        <ele>6.39965</ele>
        <time>2023-11-12T02:32:37.520Z</time>
      </trkpt>
      <trkpt lat="45.9439" lon="-0.9585">
        <ele>3.67508</ele>
        <time>2023-11-12T02:32:51.234Z</time>
      </trkpt>
      <trkpt lat="45.94382" lon="-0.95833">
        <ele>0.77513</ele>
        <time>2023-11-12T02:33:03.480Z</time>
      </trkpt>
      <trkpt lat="45.9437" lon="-0.95815">
        <ele>2.75781</ele>
        <time>2023-11-12T02:33:28.299Z</time>
      </trkpt>
      <trkpt lat="45.94347" lon="-0.95792">
        <ele>4.79246</ele>
        <time>2023-11-12T02:34:03.008Z</time>
      </trkpt>
      <trkpt lat="45.9419" lon="-0.95648">
        <ele>6.51594</ele>
        <time>2023-11-12T02:37:10.892Z</time>
      </trkpt>
      <trkpt lat="45.94178" lon="-0.95636">
        <ele>6.61787</ele>
        <time>2023-11-12T02:37:25.535Z</time>
      </trkpt>
      <trkpt lat="45.94126" lon="-0.95748">
        <ele>9.43063</ele>
        <time>2023-11-12T02:39:06.423Z</time>
      </trkpt>
      <trkpt lat="45.94098" lon="-0.95811">
        <ele>11.72581</ele>
        <time>2023-11-12T02:40:05.044Z</time>
      </trkpt>
      <trkpt lat="45.94092" lon="-0.95817">
        <ele>11.95168</ele>
        <time>2023-11-12T02:40:12.939Z</time>
      </trkpt>
      <trkpt lat="45.94088" lon="-0.95821">
        <ele>12.13337</ele>
        <time>2023-11-12T02:40:18.311Z</time>
      </trkpt>
      <trkpt lat="45.94087" lon="-0.95822">
        <ele>12.17848</ele>
        <time>2023-11-12T02:40:19.653Z</time>
      </trkpt>
      <trkpt lat="45.94085" lon="-0.95824">
        <ele>12.26528</ele>
        <time>2023-11-12T02:40:22.325Z</time>
      </trkpt>
      <trkpt lat="45.94081" lon="-0.95827">
        <ele>12.41838</ele>
        <time>2023-11-12T02:40:27.246Z</time>
      </trkpt>
      <trkpt lat="45.9408" lon="-0.95825">
        <ele>12.45625</ele>
        <time>2023-11-12T02:40:29.046Z</time>
      </trkpt>
      <trkpt lat="45.94076" lon="-0.95822">
        <ele>12.62491</ele>
        <time>2023-11-12T02:40:34.022Z</time>
      </trkpt>
      <trkpt lat="45.94074" lon="-0.9582">
        <ele>12.71576</ele>
        <time>2023-11-12T02:40:36.708Z</time>
      </trkpt>
      <trkpt lat="45.94067" lon="-0.95813">
        <ele>12.97891</ele>
        <time>2023-11-12T02:40:45.918Z</time>
      </trkpt>
      <trkpt lat="45.94058" lon="-0.95805">
        <ele>13.08315</ele>
        <time>2023-11-12T02:40:56.613Z</time>
      </trkpt>
      <trkpt lat="45.9405" lon="-0.95798">
        <ele>13.0896</ele>
        <time>2023-11-12T02:41:05.815Z</time>
      </trkpt>
      <trkpt lat="45.94049" lon="-0.95797">
        <ele>13.09591</ele>
        <time>2023-11-12T02:41:07.028Z</time>
      </trkpt>
      <trkpt lat="45.94047" lon="-0.95798">
        <ele>13.1542</ele>
        <time>2023-11-12T02:41:09.291Z</time>
      </trkpt>
      <trkpt lat="45.94045" lon="-0.95799">
        <ele>13.21996</ele>
        <time>2023-11-12T02:41:11.580Z</time>
      </trkpt>
      <trkpt lat="45.94034" lon="-0.95803">
        <ele>13.59641</ele>
        <time>2023-11-12T02:41:23.927Z</time>
      </trkpt>
      <trkpt lat="45.94014" lon="-0.95809">
        <ele>13.93932</ele>
        <time>2023-11-12T02:41:45.032Z</time>
      </trkpt>
      <trkpt lat="45.9393" lon="-0.95811">
        <ele>12.94763</ele>
        <time>2023-11-12T02:43:04.484Z</time>
      </trkpt>
      <trkpt lat="45.9392" lon="-0.95812">
        <ele>12.71788</ele>
        <time>2023-11-12T02:43:13.652Z</time>
      </trkpt>
      <trkpt lat="45.93832" lon="-0.95814">
        <ele>11.37304</ele>
        <time>2023-11-12T02:44:36.014Z</time>
      </trkpt>
      <trkpt lat="45.93827" lon="-0.95746">
        <ele>11.18213</ele>
        <time>2023-11-12T02:45:22.067Z</time>
      </trkpt>
      <trkpt lat="45.93827" lon="-0.95725">
        <ele>11.37862</ele>
        <time>2023-11-12T02:45:36.997Z</time>
      </trkpt>
      <trkpt lat="45.93827" lon="-0.95707">
        <ele>11.33552</ele>
        <time>2023-11-12T02:45:49.141Z</time>
      </trkpt>
      <trkpt lat="45.93827" lon="-0.95692">
        <ele>10.86487</ele>
        <time>2023-11-12T02:45:58.090Z</time>
      </trkpt>
      <trkpt lat="45.93825" lon="-0.95669">
        <ele>7.1137</ele>
        <time>2023-11-12T02:46:11.919Z</time>
      </trkpt>
      <trkpt lat="45.93824" lon="-0.95663">
        <ele>5.94699</ele>
        <time>2023-11-12T02:46:15.600Z</time>
      </trkpt>
      <trkpt lat="45.93801" lon="-0.95665">
        <ele>6.82434</ele>
        <time>2023-11-12T02:46:41.073Z</time>
      </trkpt>
      <trkpt lat="45.93799" lon="-0.95628">
        <ele>3.87773</ele>
        <time>2023-11-12T02:47:03.214Z</time>
      </trkpt>
      <trkpt lat="45.93772" lon="-0.95632">
        <ele>4.23131</ele>
        <time>2023-11-12T02:47:30.925Z</time>
      </trkpt>
      <trkpt lat="45.93771" lon="-0.95628">
        <ele>4.16686</ele>
        <time>2023-11-12T02:47:33.637Z</time>
      </trkpt>
      <trkpt lat="45.93699" lon="-0.95638">
        <ele>6.70739</ele>
        <time>2023-11-12T02:48:52.846Z</time>
      </trkpt>
      <trkpt lat="45.93668" lon="-0.95645">
        <ele>5.506</ele>
        <time>2023-11-12T02:49:20.268Z</time>
      </trkpt>
      <trkpt lat="45.93661" lon="-0.9568">
        <ele>7.95117</ele>
        <time>2023-11-12T02:49:54.324Z</time>
      </trkpt>
      <trkpt lat="45.93664" lon="-0.95736">
        <ele>8.59953</ele>
        <time>2023-11-12T02:50:34.651Z</time>
      </trkpt>
      <trkpt lat="45.93662" lon="-0.95764">
        <ele>8.7538</ele>
        <time>2023-11-12T02:50:54.317Z</time>
      </trkpt>
      <trkpt lat="45.93627" lon="-0.95773">
        <ele>9.2481</ele>
        <time>2023-11-12T02:51:30.715Z</time>
      </trkpt>
      <trkpt lat="45.93609" lon="-0.95776">
        <ele>8.59359</ele>
        <time>2023-11-12T02:51:46.651Z</time>
      </trkpt>
      <trkpt lat="45.93601" lon="-0.95778">
        <ele>8.24508</ele>
        <time>2023-11-12T02:51:53.651Z</time>
      </trkpt>
      <trkpt lat="45.93594" lon="-0.95778">
        <ele>8.1877</ele>
        <time>2023-11-12T02:52:00.344Z</time>
      </trkpt>
      <trkpt lat="45.93589" lon="-0.95778">
        <ele>8.31555</ele>
        <time>2023-11-12T02:52:05.655Z</time>
      </trkpt>
      <trkpt lat="45.93581" lon="-0.95777">
        <ele>8.06656</ele>
        <time>2023-11-12T02:52:12.824Z</time>
      </trkpt>
      <trkpt lat="45.93571" lon="-0.95778">
        <ele>5.78893</ele>
        <time>2023-11-12T02:52:21.424Z</time>
      </trkpt>
      <trkpt lat="45.93568" lon="-0.9578">
        <ele>4.97196</ele>
        <time>2023-11-12T02:52:24.261Z</time>
      </trkpt>
      <trkpt lat="45.93563" lon="-0.95782">
        <ele>3.65564</ele>
        <time>2023-11-12T02:52:28.713Z</time>
      </trkpt>
      <trkpt lat="45.93558" lon="-0.95783">
        <ele>2.75437</ele>
        <time>2023-11-12T02:52:33.044Z</time>
      </trkpt>
      <trkpt lat="45.93552" lon="-0.95782">
        <ele>2.20205</ele>
        <time>2023-11-12T02:52:38.226Z</time>
      </trkpt>
      <trkpt lat="45.93545" lon="-0.9578">
        <ele>3.17143</ele>
        <time>2023-11-12T02:52:49.262Z</time>
      </trkpt>
      <trkpt lat="45.9354" lon="-0.95777">
        <ele>4.41572</ele>
        <time>2023-11-12T02:53:01.276Z</time>
      </trkpt>
      <trkpt lat="45.93536" lon="-0.95771">
        <ele>5.50962</ele>
        <time>2023-11-12T02:53:12.203Z</time>
      </trkpt>
      <trkpt lat="45.93531" lon="-0.95763">
        <ele>6.63935</ele>
        <time>2023-11-12T02:53:24.435Z</time>
      </trkpt>
      <trkpt lat="45.93529" lon="-0.95762">
        <ele>6.86008</ele>
        <time>2023-11-12T02:53:27.360Z</time>
      </trkpt>
      <trkpt lat="45.93528" lon="-0.95761">
        <ele>6.9268</ele>
        <time>2023-11-12T02:53:28.782Z</time>
      </trkpt>
      <trkpt lat="45.93525" lon="-0.95761">
        <ele>7.03629</ele>
        <time>2023-11-12T02:53:32.081Z</time>
      </trkpt>
      <trkpt lat="45.93521" lon="-0.9576">
        <ele>6.96138</ele>
        <time>2023-11-12T02:53:35.845Z</time>
      </trkpt>
      <trkpt lat="45.93512" lon="-0.95762">
        <ele>6.57278</ele>
        <time>2023-11-12T02:53:43.701Z</time>
      </trkpt>
      <trkpt lat="45.93506" lon="-0.95763">
        <ele>6.53867</ele>
        <time>2023-11-12T02:53:49.522Z</time>
      </trkpt>
      <trkpt lat="45.93504" lon="-0.95764">
        <ele>6.53829</ele>
        <time>2023-11-12T02:53:51.596Z</time>
      </trkpt>
      <trkpt lat="45.93501" lon="-0.95765">
        <ele>6.51668</ele>
        <time>2023-11-12T02:53:54.552Z</time>
      </trkpt>
      <trkpt lat="45.93504" lon="-0.9578">
        <ele>6.77</ele>
        <time>2023-11-12T02:54:05.999Z</time>
      </trkpt>
      <trkpt lat="45.93507" lon="-0.95795">
        <ele>7.05567</ele>
        <time>2023-11-12T02:54:17.556Z</time>
      </trkpt>
      <trkpt lat="45.93507" lon="-0.95801">
        <ele>7.18565</ele>
        <time>2023-11-12T02:54:22.067Z</time>
      </trkpt>
      <trkpt lat="45.93508" lon="-0.95807">
        <ele>7.34868</ele>
        <time>2023-11-12T02:54:26.809Z</time>
      </trkpt>
      <trkpt lat="45.93509" lon="-0.95811">
        <ele>7.47341</ele>
        <time>2023-11-12T02:54:30.121Z</time>
      </trkpt>
      <trkpt lat="45.93511" lon="-0.95834">
        <ele>8.07545</ele>
        <time>2023-11-12T02:54:47.901Z</time>
      </trkpt>
      <trkpt lat="45.93513" lon="-0.95847">
        <ele>8.25679</ele>
        <time>2023-11-12T02:54:57.551Z</time>
      </trkpt>
      <trkpt lat="45.93515" lon="-0.95863">
        <ele>8.36688</ele>
        <time>2023-11-12T02:55:08.975Z</time>
      </trkpt>
      <trkpt lat="45.93466" lon="-0.95874">
        <ele>8.69476</ele>
        <time>2023-11-12T02:55:58.604Z</time>
      </trkpt>
      <trkpt lat="45.93458" lon="-0.95876">
        <ele>8.57503</ele>
        <time>2023-11-12T02:56:06.215Z</time>
      </trkpt>
      <trkpt lat="45.93398" lon="-0.95891">
        <ele>8.49693</ele>
        <time>2023-11-12T02:57:05.690Z</time>
      </trkpt>
      <trkpt lat="45.93295" lon="-0.95915">
        <ele>7.96883</ele>
        <time>2023-11-12T02:58:46.418Z</time>
      </trkpt>
      <trkpt lat="45.93218" lon="-0.95935">
        <ele>5.88998</ele>
        <time>2023-11-12T02:59:57.205Z</time>
      </trkpt>
      <trkpt lat="45.93222" lon="-0.9597">
        <ele>6.29856</ele>
        <time>2023-11-12T03:00:22.671Z</time>
      </trkpt>
      <trkpt lat="45.93226" lon="-0.96011">
        <ele>6.03653</ele>
        <time>2023-11-12T03:00:50.128Z</time>
      </trkpt>
      <trkpt lat="45.93224" lon="-0.96022">
        <ele>5.80273</ele>
        <time>2023-11-12T03:00:57.219Z</time>
      </trkpt>
      <trkpt lat="45.93213" lon="-0.96029">
        <ele>5.432</ele>
        <time>2023-11-12T03:01:07.964Z</time>
      </trkpt>
      <trkpt lat="45.93182" lon="-0.96036">
        <ele>4.53408</ele>
        <time>2023-11-12T03:01:36.181Z</time>
      </trkpt>
      <trkpt lat="45.93181" lon="-0.96037">
        <ele>4.52489</ele>
        <time>2023-11-12T03:01:37.348Z</time>
      </trkpt>
      <trkpt lat="45.93137" lon="-0.96046">
        <ele>4.53978</ele>
        <time>2023-11-12T03:02:20.967Z</time>
      </trkpt>
      <trkpt lat="45.9313" lon="-0.96049">
        <ele>4.48711</ele>
        <time>2023-11-12T03:02:27.972Z</time>
      </trkpt>
      <trkpt lat="45.93129" lon="-0.9605">
        <ele>4.45245</ele>
        <time>2023-11-12T03:02:29.068Z</time>
      </trkpt>
      <trkpt lat="45.93119" lon="-0.96045">
        <ele>4.83009</ele>
        <time>2023-11-12T03:02:40.682Z</time>
      </trkpt>
      <trkpt lat="45.93113" lon="-0.9604">
        <ele>5.01355</ele>
        <time>2023-11-12T03:02:48.069Z</time>
      </trkpt>
      <trkpt lat="45.93104" lon="-0.96034">
        <ele>4.611</ele>
        <time>2023-11-12T03:02:56.679Z</time>
      </trkpt>
      <trkpt lat="45.93096" lon="-0.9603">
        <ele>4.09225</ele>
        <time>2023-11-12T03:03:03.946Z</time>
      </trkpt>
      <trkpt lat="45.9309" lon="-0.96027">
        <ele>4.02001</ele>
        <time>2023-11-12T03:03:09.961Z</time>
      </trkpt>
      <trkpt lat="45.93084" lon="-0.96027">
        <ele>4.14229</ele>
        <time>2023-11-12T03:03:16.230Z</time>
      </trkpt>
      <trkpt lat="45.93082" lon="-0.96023">
        <ele>4.27525</ele>
        <time>2023-11-12T03:03:20.027Z</time>
      </trkpt>
      <trkpt lat="45.93078" lon="-0.96018">
        <ele>4.64039</ele>
        <time>2023-11-12T03:03:26.512Z</time>
      </trkpt>
      <trkpt lat="45.93074" lon="-0.96015">
        <ele>4.92185</ele>
        <time>2023-11-12T03:03:31.913Z</time>
      </trkpt>
      <trkpt lat="45.9307" lon="-0.96014">
        <ele>4.97063</ele>
        <time>2023-11-12T03:03:36.045Z</time>
      </trkpt>
      <trkpt lat="45.93065" lon="-0.96014">
        <ele>4.87965</ele>
        <time>2023-11-12T03:03:40.683Z</time>
      </trkpt>
      <trkpt lat="45.93062" lon="-0.96016">
        <ele>4.75415</ele>
        <time>2023-11-12T03:03:43.576Z</time>
      </trkpt>
      <trkpt lat="45.93057" lon="-0.96009">
        <ele>4.74328</ele>
        <time>2023-11-12T03:03:50.385Z</time>
      </trkpt>
      <trkpt lat="45.93052" lon="-0.96003">
        <ele>4.48668</ele>
        <time>2023-11-12T03:03:56.058Z</time>
      </trkpt>
      <trkpt lat="45.93045" lon="-0.95993">
        <ele>4.25399</ele>
        <time>2023-11-12T03:04:05.065Z</time>
      </trkpt>
      <trkpt lat="45.93038" lon="-0.95987">
        <ele>4.46506</ele>
        <time>2023-11-12T03:04:13.730Z</time>
      </trkpt>
      <trkpt lat="45.93035" lon="-0.95985">
        <ele>4.58778</ele>
        <time>2023-11-12T03:04:17.374Z</time>
      </trkpt>
      <trkpt lat="45.93022" lon="-0.95976">
        <ele>4.52464</ele>
        <time>2023-11-12T03:04:31.332Z</time>
      </trkpt>
      <trkpt lat="45.93022" lon="-0.95972">
        <ele>4.4702</ele>
        <time>2023-11-12T03:04:33.902Z</time>
      </trkpt>
      <trkpt lat="45.93023" lon="-0.95968">
        <ele>4.44464</ele>
        <time>2023-11-12T03:04:36.725Z</time>
      </trkpt>
      <trkpt lat="45.93022" lon="-0.95962">
        <ele>4.30794</ele>
        <time>2023-11-12T03:04:40.547Z</time>
      </trkpt>
      <trkpt lat="45.93019" lon="-0.9593">
        <ele>3.84329</ele>
        <time>2023-11-12T03:05:01.225Z</time>
      </trkpt>
      <trkpt lat="45.93012" lon="-0.95869">
        <ele>3.98867</ele>
        <time>2023-11-12T03:05:43.828Z</time>
      </trkpt>
      <trkpt lat="45.93006" lon="-0.95811">
        <ele>3.78097</ele>
        <time>2023-11-12T03:06:23.196Z</time>
      </trkpt>
      <trkpt lat="45.93003" lon="-0.95782">
        <ele>3.87839</ele>
        <time>2023-11-12T03:06:43.487Z</time>
      </trkpt>
      <trkpt lat="45.92997" lon="-0.95763">
        <ele>3.98133</ele>
        <time>2023-11-12T03:06:58.032Z</time>
      </trkpt>
      <trkpt lat="45.92991" lon="-0.95751">
        <ele>4.05397</ele>
        <time>2023-11-12T03:07:08.333Z</time>
      </trkpt>
      <trkpt lat="45.92922" lon="-0.95676">
        <ele>3.9337</ele>
        <time>2023-11-12T03:08:32.781Z</time>
      </trkpt>
      <trkpt lat="45.92919" lon="-0.95673">
        <ele>3.96386</ele>
        <time>2023-11-12T03:08:36.457Z</time>
      </trkpt>
      <trkpt lat="45.92902" lon="-0.95653">
        <ele>4.00116</ele>
        <time>2023-11-12T03:08:58.107Z</time>
      </trkpt>
      <trkpt lat="45.92863" lon="-0.95613">
        <ele>3.74478</ele>
        <time>2023-11-12T03:09:44.313Z</time>
      </trkpt>
      <trkpt lat="45.92852" lon="-0.956">
        <ele>3.74558</ele>
        <time>2023-11-12T03:09:58.276Z</time>
      </trkpt>
      <trkpt lat="45.92843" lon="-0.95589">
        <ele>3.80792</ele>
        <time>2023-11-12T03:10:10.048Z</time>
      </trkpt>
      <trkpt lat="45.92793" lon="-0.95534">
        <ele>3.58235</ele>
        <time>2023-11-12T03:11:11.099Z</time>
      </trkpt>
      <trkpt lat="45.92781" lon="-0.9552">
        <ele>3.64347</ele>
        <time>2023-11-12T03:11:26.437Z</time>
      </trkpt>
      <trkpt lat="45.9276" lon="-0.95497">
        <ele>3.46477</ele>
        <time>2023-11-12T03:11:51.789Z</time>
      </trkpt>
      <trkpt lat="45.92754" lon="-0.95488">
        <ele>3.4793</ele>
        <time>2023-11-12T03:12:00.335Z</time>
      </trkpt>
      <trkpt lat="45.92754" lon="-0.95487">
        <ele>3.47544</ele>
        <time>2023-11-12T03:12:01.006Z</time>
      </trkpt>
      <trkpt lat="45.92754" lon="-0.95488">
        <ele>3.4793</ele>
        <time>2023-11-12T03:12:01.699Z</time>
      </trkpt>
      <trkpt lat="45.92753" lon="-0.9549">
        <ele>3.50261</ele>
        <time>2023-11-12T03:12:03.452Z</time>
      </trkpt>
      <trkpt lat="45.92753" lon="-0.95491">
        <ele>3.50704</ele>
        <time>2023-11-12T03:12:04.147Z</time>
      </trkpt>
      <trkpt lat="45.92752" lon="-0.95492">
        <ele>3.52475</ele>
        <time>2023-11-12T03:12:05.397Z</time>
      </trkpt>
      <trkpt lat="45.92751" lon="-0.95492">
        <ele>3.53792</ele>
        <time>2023-11-12T03:12:06.418Z</time>
      </trkpt>
      <trkpt lat="45.9275" lon="-0.95491">
        <ele>3.54844</ele>
        <time>2023-11-12T03:12:07.645Z</time>
      </trkpt>
      <trkpt lat="45.92749" lon="-0.95491">
        <ele>3.56249</ele>
        <time>2023-11-12T03:12:08.669Z</time>
      </trkpt>
      <trkpt lat="45.92746" lon="-0.95494">
        <ele>3.60524</ele>
        <time>2023-11-12T03:12:12.384Z</time>
      </trkpt>
      <trkpt lat="45.92735" lon="-0.95512">
        <ele>3.58779</ele>
        <time>2023-11-12T03:12:28.672Z</time>
      </trkpt>
      <trkpt lat="45.92738" lon="-0.9553">
        <ele>3.59009</ele>
        <time>2023-11-12T03:12:41.302Z</time>
      </trkpt>
      <trkpt lat="45.92749" lon="-0.95574">
        <ele>4.08615</ele>
        <time>2023-11-12T03:13:14.736Z</time>
      </trkpt>
      <trkpt lat="45.92722" lon="-0.95588">
        <ele>3.59445</ele>
        <time>2023-11-12T03:13:41.447Z</time>
      </trkpt>
      <trkpt lat="45.92707" lon="-0.95595">
        <ele>3.38283</ele>
        <time>2023-11-12T03:13:56.289Z</time>
      </trkpt>
      <trkpt lat="45.92694" lon="-0.95599">
        <ele>3.29487</ele>
        <time>2023-11-12T03:14:09.062Z</time>
      </trkpt>
      <trkpt lat="45.92667" lon="-0.95624">
        <ele>3.77598</ele>
        <time>2023-11-12T03:14:42.050Z</time>
      </trkpt>
      <trkpt lat="45.92663" lon="-0.95626">
        <ele>3.85398</ele>
        <time>2023-11-12T03:14:46.447Z</time>
      </trkpt>
      <trkpt lat="45.92657" lon="-0.95622">
        <ele>3.83052</ele>
        <time>2023-11-12T03:14:52.862Z</time>
      </trkpt>
      <trkpt lat="45.92652" lon="-0.95621">
        <ele>3.71183</ele>
        <time>2023-11-12T03:14:57.470Z</time>
      </trkpt>
      <trkpt lat="45.92648" lon="-0.95625">
        <ele>3.63195</ele>
        <time>2023-11-12T03:15:02.015Z</time>
      </trkpt>
      <trkpt lat="45.92643" lon="-0.9563">
        <ele>3.52654</ele>
        <time>2023-11-12T03:15:07.680Z</time>
      </trkpt>
      <trkpt lat="45.92635" lon="-0.95634">
        <ele>3.40853</ele>
        <time>2023-11-12T03:15:15.639Z</time>
      </trkpt>
      <trkpt lat="45.92623" lon="-0.95636">
        <ele>3.38995</ele>
        <time>2023-11-12T03:15:27.427Z</time>
      </trkpt>
      <trkpt lat="45.92612" lon="-0.95645">
        <ele>3.40945</ele>
        <time>2023-11-12T03:15:39.896Z</time>
      </trkpt>
      <trkpt lat="45.92609" lon="-0.95634">
        <ele>3.41923</ele>
        <time>2023-11-12T03:15:47.983Z</time>
      </trkpt>
      <trkpt lat="45.92552" lon="-0.95661">
        <ele>3.47679</ele>
        <time>2023-11-12T03:16:46.999Z</time>
      </trkpt>
      <trkpt lat="45.92549" lon="-0.95666">
        <ele>3.45643</ele>
        <time>2023-11-12T03:16:51.441Z</time>
      </trkpt>
      <trkpt lat="45.92547" lon="-0.95672">
        <ele>3.48601</ele>
        <time>2023-11-12T03:16:56.069Z</time>
      </trkpt>
      <trkpt lat="45.9254" lon="-0.95676">
        <ele>3.54999</ele>
        <time>2023-11-12T03:17:03.652Z</time>
      </trkpt>
      <trkpt lat="45.92536" lon="-0.95678">
        <ele>3.62194</ele>
        <time>2023-11-12T03:17:08.029Z</time>
      </trkpt>
      <trkpt lat="45.9253" lon="-0.95681">
        <ele>3.73702</ele>
        <time>2023-11-12T03:17:14.619Z</time>
      </trkpt>
      <trkpt lat="45.92529" lon="-0.95681">
        <ele>3.75234</ele>
        <time>2023-11-12T03:17:15.647Z</time>
      </trkpt>
      <trkpt lat="45.92528" lon="-0.9568">
        <ele>3.76366</ele>
        <time>2023-11-12T03:17:16.877Z</time>
      </trkpt>
      <trkpt lat="45.92526" lon="-0.9568">
        <ele>3.79271</ele>
        <time>2023-11-12T03:17:18.928Z</time>
      </trkpt>
      <trkpt lat="45.92525" lon="-0.9568">
        <ele>3.80601</ele>
        <time>2023-11-12T03:17:19.950Z</time>
      </trkpt>
      <trkpt lat="45.92523" lon="-0.95682">
        <ele>3.83099</ele>
        <time>2023-11-12T03:17:22.416Z</time>
      </trkpt>
      <trkpt lat="45.92522" lon="-0.95685">
        <ele>3.8388</ele>
        <time>2023-11-12T03:17:24.708Z</time>
      </trkpt>
      <trkpt lat="45.92522" lon="-0.95687">
        <ele>3.83646</ele>
        <time>2023-11-12T03:17:26.065Z</time>
      </trkpt>
      <trkpt lat="45.92522" lon="-0.95689">
        <ele>3.83241</ele>
        <time>2023-11-12T03:17:27.417Z</time>
      </trkpt>
      <trkpt lat="45.92523" lon="-0.95691">
        <ele>3.82113</ele>
        <time>2023-11-12T03:17:29.063Z</time>
      </trkpt>
      <trkpt lat="45.92521" lon="-0.95697">
        <ele>3.79873</ele>
        <time>2023-11-12T03:17:33.534Z</time>
      </trkpt>
      <trkpt lat="45.9252" lon="-0.95699">
        <ele>3.78653</ele>
        <time>2023-11-12T03:17:35.177Z</time>
      </trkpt>
      <trkpt lat="45.92519" lon="-0.95701">
        <ele>3.77218</ele>
        <time>2023-11-12T03:17:36.815Z</time>
      </trkpt>
      <trkpt lat="45.92516" lon="-0.957">
        <ele>3.77931</ele>
        <time>2023-11-12T03:17:39.856Z</time>
      </trkpt>
      <trkpt lat="45.92511" lon="-0.95697">
        <ele>3.79071</ele>
        <time>2023-11-12T03:17:45.203Z</time>
      </trkpt>
      <trkpt lat="45.92507" lon="-0.95695">
        <ele>3.78961</ele>
        <time>2023-11-12T03:17:49.351Z</time>
      </trkpt>
      <trkpt lat="45.92453" lon="-0.95658">
        <ele>3.86229</ele>
        <time>2023-11-12T03:18:48.222Z</time>
      </trkpt>
      <trkpt lat="45.92449" lon="-0.95665">
        <ele>3.71275</ele>
        <time>2023-11-12T03:18:53.972Z</time>
      </trkpt>
      <trkpt lat="45.92443" lon="-0.95675">
        <ele>3.54962</ele>
        <time>2023-11-12T03:19:02.504Z</time>
      </trkpt>
      <trkpt lat="45.92435" lon="-0.95677">
        <ele>3.61559</ele>
        <time>2023-11-12T03:19:10.668Z</time>
      </trkpt>
      <trkpt lat="45.92419" lon="-0.95671">
        <ele>3.34844</ele>
        <time>2023-11-12T03:19:26.102Z</time>
      </trkpt>
      <trkpt lat="45.92415" lon="-0.95684">
        <ele>3.33968</ele>
        <time>2023-11-12T03:19:35.770Z</time>
      </trkpt>
      <trkpt lat="45.9237" lon="-0.95705">
        <ele>3.02818</ele>
        <time>2023-11-12T03:20:21.231Z</time>
      </trkpt>
      <trkpt lat="45.92369" lon="-0.95718">
        <ele>3.05816</ele>
        <time>2023-11-12T03:20:30.242Z</time>
      </trkpt>
      <trkpt lat="45.9237" lon="-0.95725">
        <ele>3.23188</ele>
        <time>2023-11-12T03:20:35.682Z</time>
      </trkpt>
      <trkpt lat="45.9237" lon="-0.95729">
        <ele>3.3573</ele>
        <time>2023-11-12T03:20:38.829Z</time>
      </trkpt>
      <trkpt lat="45.9237" lon="-0.9573">
        <ele>3.38961</ele>
        <time>2023-11-12T03:20:39.619Z</time>
      </trkpt>
      <trkpt lat="45.9237" lon="-0.95751">
        <ele>3.84251</ele>
        <time>2023-11-12T03:20:55.405Z</time>
      </trkpt>
      <trkpt lat="45.9237" lon="-0.95774">
        <ele>3.89358</ele>
        <time>2023-11-12T03:21:11.247Z</time>
      </trkpt>
      <trkpt lat="45.9237" lon="-0.95791">
        <ele>3.98355</ele>
        <time>2023-11-12T03:21:23.118Z</time>
      </trkpt>
      <trkpt lat="45.9237" lon="-0.95812">
        <ele>4.07452</ele>
        <time>2023-11-12T03:21:37.718Z</time>
      </trkpt>
      <trkpt lat="45.9237" lon="-0.95822">
        <ele>4.06046</ele>
        <time>2023-11-12T03:21:44.496Z</time>
      </trkpt>
      <trkpt lat="45.92371" lon="-0.95831">
        <ele>4.04148</ele>
        <time>2023-11-12T03:21:50.656Z</time>
      </trkpt>
      <trkpt lat="45.92371" lon="-0.95852">
        <ele>3.87274</ele>
        <time>2023-11-12T03:22:04.481Z</time>
      </trkpt>
      <trkpt lat="45.92371" lon="-0.95874">
        <ele>3.70725</ele>
        <time>2023-11-12T03:22:18.998Z</time>
      </trkpt>
      <trkpt lat="45.92371" lon="-0.95895">
        <ele>3.68262</ele>
        <time>2023-11-12T03:22:33.246Z</time>
      </trkpt>
      <trkpt lat="45.92357" lon="-0.95915">
        <ele>3.45606</ele>
        <time>2023-11-12T03:22:51.930Z</time>
      </trkpt>
      <trkpt lat="45.92344" lon="-0.95935">
        <ele>3.58899</ele>
        <time>2023-11-12T03:23:11.007Z</time>
      </trkpt>
      <trkpt lat="45.92345" lon="-0.95957">
        <ele>3.47856</ele>
        <time>2023-11-12T03:23:25.715Z</time>
      </trkpt>
      <trkpt lat="45.92345" lon="-0.95978">
        <ele>3.43789</ele>
        <time>2023-11-12T03:23:39.916Z</time>
      </trkpt>
      <trkpt lat="45.92345" lon="-0.96002">
        <ele>3.60473</ele>
        <time>2023-11-12T03:23:56.799Z</time>
      </trkpt>
      <trkpt lat="45.92342" lon="-0.96002">
        <ele>3.6145</ele>
        <time>2023-11-12T03:23:59.770Z</time>
      </trkpt>
      <trkpt lat="45.92305" lon="-0.96004">
        <ele>3.46236</ele>
        <time>2023-11-12T03:24:35.617Z</time>
      </trkpt>
      <trkpt lat="45.92298" lon="-0.96004">
        <ele>3.44475</ele>
        <time>2023-11-12T03:24:42.428Z</time>
      </trkpt>
      <trkpt lat="45.92299" lon="-0.96022">
        <ele>3.45441</ele>
        <time>2023-11-12T03:24:54.773Z</time>
      </trkpt>
      <trkpt lat="45.92299" lon="-0.96029">
        <ele>3.48174</ele>
        <time>2023-11-12T03:24:59.630Z</time>
      </trkpt>
      <trkpt lat="45.92215" lon="-0.96035">
        <ele>3.63364</ele>
        <time>2023-11-12T03:26:22.551Z</time>
      </trkpt>
      <trkpt lat="45.92148" lon="-0.96041">
        <ele>3.63619</ele>
        <time>2023-11-12T03:27:28.377Z</time>
      </trkpt>
      <trkpt lat="45.9213" lon="-0.96042">
        <ele>3.52129</ele>
        <time>2023-11-12T03:27:45.696Z</time>
      </trkpt>
      <trkpt lat="45.92124" lon="-0.96043">
        <ele>3.53292</ele>
        <time>2023-11-12T03:27:51.654Z</time>
        <extensions>
          <visugpx:TrkExtension xmlns:visugpx="https://www.visugpx.com/editgpx/">
            <visugpx:node>1</visugpx:node>
            </visugpx:TrkExtension>
        </extensions>
      </trkpt>
    </trkseg>
  </trk>
</gpx>